<?xml version="1.0" encoding="UTF-8" standalone="no" ?><gpx xmlns="http://www.topografix.com/GPX/1/1" xmlns:gpxx="http://www.garmin.com/xmlschemas/GpxExtensions/v3" xmlns:wptx1="http://www.garmin.com/xmlschemas/WaypointExtension/v1" xmlns:gpxtpx="http://www.garmin.com/xmlschemas/TrackPointExtension/v1" creator="GuideVTT.com" version="1.1" xmlns:xsi="http://www.w3.org/2001/XMLSchema-instance" xsi:schemaLocation="http://www.topografix.com/GPX/1/1 http://www.topografix.com/GPX/1/1/gpx.xsd http://www.garmin.com/xmlschemas/GpxExtensions/v3 http://www8.garmin.com/xmlschemas/GpxExtensionsv3.xsd http://www.garmin.com/xmlschemas/WaypointExtension/v1 http://www8.garmin.com/xmlschemas/WaypointExtensionv1.xsd http://www.garmin.com/xmlschemas/TrackPointExtension/v1 http://www.garmin.com/xmlschemas/TrackPointExtensionv1.xsd">
<metadata><link href="http://www.garmin.com"><text>Garmin International</text></link><time>2013-06-22T15:13:50Z</time></metadata>
<trk><name>rp2019_11.gpx</name><extensions><gpxx:TrackExtension><gpxx:DisplayColor>Cyan</gpxx:DisplayColor></gpxx:TrackExtension></extensions><trkseg>
<trkpt lat="46.20663" lon="7.43966"><ele></ele><time>2019-7-16T21:53:49Z</time></trkpt>
<trkpt lat="46.20663" lon="7.43966"><ele></ele><time>2019-7-16T21:53:52Z</time></trkpt>
<trkpt lat="46.20669" lon="7.4397"><ele></ele><time>2019-7-16T21:53:55Z</time></trkpt>
<trkpt lat="46.20677" lon="7.43973"><ele></ele><time>2019-7-16T21:53:58Z</time></trkpt>
<trkpt lat="46.20699" lon="7.43983"><ele></ele><time>2019-7-16T21:54:1Z</time></trkpt>
<trkpt lat="46.20716" lon="7.43973"><ele></ele><time>2019-7-16T21:54:4Z</time></trkpt>
<trkpt lat="46.20732" lon="7.43959"><ele></ele><time>2019-7-16T21:54:7Z</time></trkpt>
<trkpt lat="46.20736" lon="7.43957"><ele></ele><time>2019-7-16T21:54:10Z</time></trkpt>
<trkpt lat="46.20761" lon="7.43942"><ele></ele><time>2019-7-16T21:54:13Z</time></trkpt>
<trkpt lat="46.20766" lon="7.43941"><ele></ele><time>2019-7-16T21:54:16Z</time></trkpt>
<trkpt lat="46.20786" lon="7.43947"><ele></ele><time>2019-7-16T21:54:19Z</time></trkpt>
<trkpt lat="46.20791" lon="7.43948"><ele></ele><time>2019-7-16T21:54:22Z</time></trkpt>
<trkpt lat="46.208" lon="7.4395"><ele></ele><time>2019-7-16T21:54:25Z</time></trkpt>
<trkpt lat="46.20818" lon="7.43955"><ele></ele><time>2019-7-16T21:54:28Z</time></trkpt>
<trkpt lat="46.20822" lon="7.43955"><ele></ele><time>2019-7-16T21:54:31Z</time></trkpt>
<trkpt lat="46.20842" lon="7.43954"><ele></ele><time>2019-7-16T21:54:34Z</time></trkpt>
<trkpt lat="46.20852" lon="7.43954"><ele></ele><time>2019-7-16T21:54:37Z</time></trkpt>
<trkpt lat="46.20871" lon="7.43957"><ele></ele><time>2019-7-16T21:54:40Z</time></trkpt>
<trkpt lat="46.20876" lon="7.43957"><ele></ele><time>2019-7-16T21:54:43Z</time></trkpt>
<trkpt lat="46.20897" lon="7.43949"><ele></ele><time>2019-7-16T21:54:46Z</time></trkpt>
<trkpt lat="46.20917" lon="7.43943"><ele></ele><time>2019-7-16T21:54:49Z</time></trkpt>
<trkpt lat="46.20924" lon="7.43942"><ele></ele><time>2019-7-16T21:54:52Z</time></trkpt>
<trkpt lat="46.2094" lon="7.43941"><ele></ele><time>2019-7-16T21:54:55Z</time></trkpt>
<trkpt lat="46.20968" lon="7.43937"><ele></ele><time>2019-7-16T21:54:58Z</time></trkpt>
<trkpt lat="46.20986" lon="7.43923"><ele></ele><time>2019-7-16T21:55:1Z</time></trkpt>
<trkpt lat="46.21004" lon="7.43904"><ele></ele><time>2019-7-16T21:55:4Z</time></trkpt>
<trkpt lat="46.21024" lon="7.43883"><ele></ele><time>2019-7-16T21:55:7Z</time></trkpt>
<trkpt lat="46.21044" lon="7.43861"><ele></ele><time>2019-7-16T21:55:10Z</time></trkpt>
<trkpt lat="46.21064" lon="7.43839"><ele></ele><time>2019-7-16T21:55:13Z</time></trkpt>
<trkpt lat="46.21081" lon="7.43822"><ele></ele><time>2019-7-16T21:55:16Z</time></trkpt>
<trkpt lat="46.211" lon="7.43807"><ele></ele><time>2019-7-16T21:55:19Z</time></trkpt>
<trkpt lat="46.21092" lon="7.43793"><ele></ele><time>2019-7-16T21:55:22Z</time></trkpt>
<trkpt lat="46.21084" lon="7.438"><ele></ele><time>2019-7-16T21:55:25Z</time></trkpt>
<trkpt lat="46.21067" lon="7.43811"><ele></ele><time>2019-7-16T21:55:28Z</time></trkpt>
<trkpt lat="46.21053" lon="7.43818"><ele></ele><time>2019-7-16T21:55:31Z</time></trkpt>
<trkpt lat="46.21028" lon="7.43826"><ele></ele><time>2019-7-16T21:55:34Z</time></trkpt>
<trkpt lat="46.21019" lon="7.43827"><ele></ele><time>2019-7-16T21:55:37Z</time></trkpt>
<trkpt lat="46.20999" lon="7.43826"><ele></ele><time>2019-7-16T21:55:40Z</time></trkpt>
<trkpt lat="46.20978" lon="7.4382"><ele></ele><time>2019-7-16T21:55:43Z</time></trkpt>
<trkpt lat="46.20967" lon="7.43815"><ele></ele><time>2019-7-16T21:55:46Z</time></trkpt>
<trkpt lat="46.20945" lon="7.43805"><ele></ele><time>2019-7-16T21:55:49Z</time></trkpt>
<trkpt lat="46.20923" lon="7.43794"><ele></ele><time>2019-7-16T21:55:52Z</time></trkpt>
<trkpt lat="46.20912" lon="7.4379"><ele></ele><time>2019-7-16T21:55:55Z</time></trkpt>
<trkpt lat="46.2089" lon="7.43789"><ele></ele><time>2019-7-16T21:55:58Z</time></trkpt>
<trkpt lat="46.20879" lon="7.43789"><ele></ele><time>2019-7-16T21:56:1Z</time></trkpt>
<trkpt lat="46.20869" lon="7.43787"><ele></ele><time>2019-7-16T21:56:4Z</time></trkpt>
<trkpt lat="46.20851" lon="7.43772"><ele></ele><time>2019-7-16T21:56:7Z</time></trkpt>
<trkpt lat="46.2084" lon="7.43745"><ele></ele><time>2019-7-16T21:56:10Z</time></trkpt>
<trkpt lat="46.20831" lon="7.43717"><ele></ele><time>2019-7-16T21:56:13Z</time></trkpt>
<trkpt lat="46.20817" lon="7.43695"><ele></ele><time>2019-7-16T21:56:16Z</time></trkpt>
<trkpt lat="46.20798" lon="7.4368"><ele></ele><time>2019-7-16T21:56:19Z</time></trkpt>
<trkpt lat="46.20788" lon="7.43675"><ele></ele><time>2019-7-16T21:56:22Z</time></trkpt>
<trkpt lat="46.20766" lon="7.43663"><ele></ele><time>2019-7-16T21:56:25Z</time></trkpt>
<trkpt lat="46.20756" lon="7.43655"><ele></ele><time>2019-7-16T21:56:28Z</time></trkpt>
<trkpt lat="46.20739" lon="7.43632"><ele></ele><time>2019-7-16T21:56:31Z</time></trkpt>
<trkpt lat="46.20732" lon="7.43618"><ele></ele><time>2019-7-16T21:56:34Z</time></trkpt>
<trkpt lat="46.20716" lon="7.43591"><ele></ele><time>2019-7-16T21:56:37Z</time></trkpt>
<trkpt lat="46.20707" lon="7.43579"><ele></ele><time>2019-7-16T21:56:40Z</time></trkpt>
<trkpt lat="46.20688" lon="7.43555"><ele></ele><time>2019-7-16T21:56:43Z</time></trkpt>
<trkpt lat="46.20668" lon="7.43531"><ele></ele><time>2019-7-16T21:56:46Z</time></trkpt>
<trkpt lat="46.20649" lon="7.43506"><ele></ele><time>2019-7-16T21:56:49Z</time></trkpt>
<trkpt lat="46.2063" lon="7.43481"><ele></ele><time>2019-7-16T21:56:52Z</time></trkpt>
<trkpt lat="46.20622" lon="7.43466"><ele></ele><time>2019-7-16T21:56:55Z</time></trkpt>
<trkpt lat="46.20608" lon="7.43437"><ele></ele><time>2019-7-16T21:56:58Z</time></trkpt>
<trkpt lat="46.206" lon="7.43424"><ele></ele><time>2019-7-16T21:57:1Z</time></trkpt>
<trkpt lat="46.20582" lon="7.43404"><ele></ele><time>2019-7-16T21:57:4Z</time></trkpt>
<trkpt lat="46.20559" lon="7.4339"><ele></ele><time>2019-7-16T21:57:7Z</time></trkpt>
<trkpt lat="46.20547" lon="7.43385"><ele></ele><time>2019-7-16T21:57:10Z</time></trkpt>
<trkpt lat="46.20523" lon="7.43374"><ele></ele><time>2019-7-16T21:57:13Z</time></trkpt>
<trkpt lat="46.205" lon="7.43356"><ele></ele><time>2019-7-16T21:57:16Z</time></trkpt>
<trkpt lat="46.20481" lon="7.43331"><ele></ele><time>2019-7-16T21:57:19Z</time></trkpt>
<trkpt lat="46.20462" lon="7.43306"><ele></ele><time>2019-7-16T21:57:22Z</time></trkpt>
<trkpt lat="46.20444" lon="7.43283"><ele></ele><time>2019-7-16T21:57:25Z</time></trkpt>
<trkpt lat="46.20422" lon="7.43267"><ele></ele><time>2019-7-16T21:57:28Z</time></trkpt>
<trkpt lat="46.20401" lon="7.43251"><ele></ele><time>2019-7-16T21:57:31Z</time></trkpt>
<trkpt lat="46.20384" lon="7.43227"><ele></ele><time>2019-7-16T21:57:34Z</time></trkpt>
<trkpt lat="46.20378" lon="7.43216"><ele></ele><time>2019-7-16T21:57:37Z</time></trkpt>
<trkpt lat="46.20365" lon="7.43186"><ele></ele><time>2019-7-16T21:57:40Z</time></trkpt>
<trkpt lat="46.20358" lon="7.43167"><ele></ele><time>2019-7-16T21:57:43Z</time></trkpt>
<trkpt lat="46.20356" lon="7.43164"><ele></ele><time>2019-7-16T21:57:46Z</time></trkpt>
<trkpt lat="46.20354" lon="7.43163"><ele></ele><time>2019-7-16T21:57:49Z</time></trkpt>
<trkpt lat="46.20352" lon="7.43161"><ele></ele><time>2019-7-16T21:57:52Z</time></trkpt>
<trkpt lat="46.2035" lon="7.43159"><ele></ele><time>2019-7-16T21:57:55Z</time></trkpt>
<trkpt lat="46.20349" lon="7.43158"><ele></ele><time>2019-7-16T21:57:58Z</time></trkpt>
<trkpt lat="46.20346" lon="7.43154"><ele></ele><time>2019-7-16T21:58:1Z</time></trkpt>
<trkpt lat="46.20345" lon="7.43153"><ele></ele><time>2019-7-16T21:58:4Z</time></trkpt>
<trkpt lat="46.20341" lon="7.43147"><ele></ele><time>2019-7-16T21:58:7Z</time></trkpt>
<trkpt lat="46.20334" lon="7.43141"><ele></ele><time>2019-7-16T21:58:10Z</time></trkpt>
<trkpt lat="46.20333" lon="7.4314"><ele></ele><time>2019-7-16T21:58:13Z</time></trkpt>
<trkpt lat="46.20331" lon="7.43138"><ele></ele><time>2019-7-16T21:58:16Z</time></trkpt>
<trkpt lat="46.20328" lon="7.43134"><ele></ele><time>2019-7-16T21:58:19Z</time></trkpt>
<trkpt lat="46.20325" lon="7.43133"><ele></ele><time>2019-7-16T21:58:22Z</time></trkpt>
<trkpt lat="46.20323" lon="7.43131"><ele></ele><time>2019-7-16T21:58:25Z</time></trkpt>
<trkpt lat="46.20321" lon="7.4313"><ele></ele><time>2019-7-16T21:58:28Z</time></trkpt>
<trkpt lat="46.20318" lon="7.43126"><ele></ele><time>2019-7-16T21:58:31Z</time></trkpt>
<trkpt lat="46.20312" lon="7.43121"><ele></ele><time>2019-7-16T21:58:34Z</time></trkpt>
<trkpt lat="46.20309" lon="7.43118"><ele></ele><time>2019-7-16T21:58:37Z</time></trkpt>
<trkpt lat="46.20303" lon="7.43111"><ele></ele><time>2019-7-16T21:58:40Z</time></trkpt>
<trkpt lat="46.20295" lon="7.43101"><ele></ele><time>2019-7-16T21:58:43Z</time></trkpt>
<trkpt lat="46.2029" lon="7.43097"><ele></ele><time>2019-7-16T21:58:46Z</time></trkpt>
<trkpt lat="46.20282" lon="7.43093"><ele></ele><time>2019-7-16T21:58:49Z</time></trkpt>
<trkpt lat="46.20268" lon="7.43085"><ele></ele><time>2019-7-16T21:58:52Z</time></trkpt>
<trkpt lat="46.20258" lon="7.43082"><ele></ele><time>2019-7-16T21:58:55Z</time></trkpt>
<trkpt lat="46.2024" lon="7.43073"><ele></ele><time>2019-7-16T21:58:58Z</time></trkpt>
<trkpt lat="46.20223" lon="7.43061"><ele></ele><time>2019-7-16T21:59:1Z</time></trkpt>
<trkpt lat="46.20213" lon="7.43049"><ele></ele><time>2019-7-16T21:59:4Z</time></trkpt>
<trkpt lat="46.20201" lon="7.43038"><ele></ele><time>2019-7-16T21:59:7Z</time></trkpt>
<trkpt lat="46.20184" lon="7.43031"><ele></ele><time>2019-7-16T21:59:10Z</time></trkpt>
<trkpt lat="46.20165" lon="7.43025"><ele></ele><time>2019-7-16T21:59:13Z</time></trkpt>
<trkpt lat="46.20152" lon="7.43021"><ele></ele><time>2019-7-16T21:59:16Z</time></trkpt>
<trkpt lat="46.20134" lon="7.43013"><ele></ele><time>2019-7-16T21:59:19Z</time></trkpt>
<trkpt lat="46.20117" lon="7.43003"><ele></ele><time>2019-7-16T21:59:22Z</time></trkpt>
<trkpt lat="46.20099" lon="7.42994"><ele></ele><time>2019-7-16T21:59:25Z</time></trkpt>
<trkpt lat="46.20082" lon="7.42985"><ele></ele><time>2019-7-16T21:59:28Z</time></trkpt>
<trkpt lat="46.20064" lon="7.42978"><ele></ele><time>2019-7-16T21:59:31Z</time></trkpt>
<trkpt lat="46.20057" lon="7.42976"><ele></ele><time>2019-7-16T21:59:34Z</time></trkpt>
<trkpt lat="46.20055" lon="7.42986"><ele></ele><time>2019-7-16T21:59:37Z</time></trkpt>
<trkpt lat="46.20058" lon="7.42989"><ele></ele><time>2019-7-16T21:59:40Z</time></trkpt>
<trkpt lat="46.20062" lon="7.4299"><ele></ele><time>2019-7-16T21:59:43Z</time></trkpt>
<trkpt lat="46.20079" lon="7.42998"><ele></ele><time>2019-7-16T21:59:46Z</time></trkpt>
<trkpt lat="46.20082" lon="7.42999"><ele></ele><time>2019-7-16T21:59:49Z</time></trkpt>
<trkpt lat="46.20088" lon="7.43004"><ele></ele><time>2019-7-16T21:59:52Z</time></trkpt>
<trkpt lat="46.20091" lon="7.4301"><ele></ele><time>2019-7-16T21:59:55Z</time></trkpt>
<trkpt lat="46.20096" lon="7.4302"><ele></ele><time>2019-7-16T21:59:58Z</time></trkpt>
<trkpt lat="46.20113" lon="7.43045"><ele></ele><time>2019-7-16T22:0:1Z</time></trkpt>
<trkpt lat="46.20122" lon="7.43056"><ele></ele><time>2019-7-16T22:0:4Z</time></trkpt>
<trkpt lat="46.20138" lon="7.43073"><ele></ele><time>2019-7-16T22:0:7Z</time></trkpt>
<trkpt lat="46.20145" lon="7.43081"><ele></ele><time>2019-7-16T22:0:10Z</time></trkpt>
<trkpt lat="46.20158" lon="7.431"><ele></ele><time>2019-7-16T22:0:13Z</time></trkpt>
<trkpt lat="46.20161" lon="7.43106"><ele></ele><time>2019-7-16T22:0:16Z</time></trkpt>
<trkpt lat="46.20179" lon="7.43137"><ele></ele><time>2019-7-16T22:0:19Z</time></trkpt>
<trkpt lat="46.20188" lon="7.4316"><ele></ele><time>2019-7-16T22:0:22Z</time></trkpt>
<trkpt lat="46.20196" lon="7.43175"><ele></ele><time>2019-7-16T22:0:25Z</time></trkpt>
<trkpt lat="46.20203" lon="7.43194"><ele></ele><time>2019-7-16T22:0:28Z</time></trkpt>
<trkpt lat="46.20207" lon="7.43205"><ele></ele><time>2019-7-16T22:0:31Z</time></trkpt>
<trkpt lat="46.20214" lon="7.43231"><ele></ele><time>2019-7-16T22:0:34Z</time></trkpt>
<trkpt lat="46.20225" lon="7.43258"><ele></ele><time>2019-7-16T22:0:37Z</time></trkpt>
<trkpt lat="46.20236" lon="7.4328"><ele></ele><time>2019-7-16T22:0:40Z</time></trkpt>
<trkpt lat="46.20243" lon="7.43299"><ele></ele><time>2019-7-16T22:0:43Z</time></trkpt>
<trkpt lat="46.20253" lon="7.43321"><ele></ele><time>2019-7-16T22:0:46Z</time></trkpt>
<trkpt lat="46.20256" lon="7.43333"><ele></ele><time>2019-7-16T22:0:49Z</time></trkpt>
<trkpt lat="46.20255" lon="7.4336"><ele></ele><time>2019-7-16T22:0:52Z</time></trkpt>
<trkpt lat="46.20256" lon="7.43371"><ele></ele><time>2019-7-16T22:0:55Z</time></trkpt>
<trkpt lat="46.20264" lon="7.43396"><ele></ele><time>2019-7-16T22:0:58Z</time></trkpt>
<trkpt lat="46.20271" lon="7.4342"><ele></ele><time>2019-7-16T22:1:1Z</time></trkpt>
<trkpt lat="46.20271" lon="7.43422"><ele></ele><time>2019-7-16T22:1:4Z</time></trkpt>
<trkpt lat="46.20273" lon="7.43431"><ele></ele><time>2019-7-16T22:1:7Z</time></trkpt>
<trkpt lat="46.20284" lon="7.43451"><ele></ele><time>2019-7-16T22:1:10Z</time></trkpt>
<trkpt lat="46.20291" lon="7.43459"><ele></ele><time>2019-7-16T22:1:13Z</time></trkpt>
<trkpt lat="46.20294" lon="7.43467"><ele></ele><time>2019-7-16T22:1:16Z</time></trkpt>
<trkpt lat="46.20287" lon="7.43471"><ele></ele><time>2019-7-16T22:1:19Z</time></trkpt>
<trkpt lat="46.20279" lon="7.43465"><ele></ele><time>2019-7-16T22:1:22Z</time></trkpt>
<trkpt lat="46.20263" lon="7.43449"><ele></ele><time>2019-7-16T22:1:25Z</time></trkpt>
<trkpt lat="46.20255" lon="7.4344"><ele></ele><time>2019-7-16T22:1:28Z</time></trkpt>
<trkpt lat="46.20242" lon="7.43421"><ele></ele><time>2019-7-16T22:1:31Z</time></trkpt>
<trkpt lat="46.20234" lon="7.43406"><ele></ele><time>2019-7-16T22:1:34Z</time></trkpt>
<trkpt lat="46.20223" lon="7.43383"><ele></ele><time>2019-7-16T22:1:37Z</time></trkpt>
<trkpt lat="46.20215" lon="7.43358"><ele></ele><time>2019-7-16T22:1:40Z</time></trkpt>
<trkpt lat="46.20208" lon="7.43346"><ele></ele><time>2019-7-16T22:1:43Z</time></trkpt>
<trkpt lat="46.20203" lon="7.43339"><ele></ele><time>2019-7-16T22:1:46Z</time></trkpt>
<trkpt lat="46.20195" lon="7.43334"><ele></ele><time>2019-7-16T22:1:49Z</time></trkpt>
<trkpt lat="46.20177" lon="7.43324"><ele></ele><time>2019-7-16T22:1:52Z</time></trkpt>
<trkpt lat="46.20159" lon="7.43316"><ele></ele><time>2019-7-16T22:1:55Z</time></trkpt>
<trkpt lat="46.20141" lon="7.43311"><ele></ele><time>2019-7-16T22:1:58Z</time></trkpt>
<trkpt lat="46.20136" lon="7.43308"><ele></ele><time>2019-7-16T22:2:1Z</time></trkpt>
<trkpt lat="46.20123" lon="7.43294"><ele></ele><time>2019-7-16T22:2:4Z</time></trkpt>
<trkpt lat="46.20109" lon="7.43278"><ele></ele><time>2019-7-16T22:2:7Z</time></trkpt>
<trkpt lat="46.201" lon="7.43265"><ele></ele><time>2019-7-16T22:2:10Z</time></trkpt>
<trkpt lat="46.20092" lon="7.43251"><ele></ele><time>2019-7-16T22:2:13Z</time></trkpt>
<trkpt lat="46.20091" lon="7.4325"><ele></ele><time>2019-7-16T22:2:16Z</time></trkpt>
<trkpt lat="46.20079" lon="7.43246"><ele></ele><time>2019-7-16T22:2:19Z</time></trkpt>
<trkpt lat="46.20059" lon="7.43245"><ele></ele><time>2019-7-16T22:2:22Z</time></trkpt>
<trkpt lat="46.2004" lon="7.43244"><ele></ele><time>2019-7-16T22:2:25Z</time></trkpt>
<trkpt lat="46.20019" lon="7.43239"><ele></ele><time>2019-7-16T22:2:28Z</time></trkpt>
<trkpt lat="46.2" lon="7.43241"><ele></ele><time>2019-7-16T22:2:31Z</time></trkpt>
<trkpt lat="46.19987" lon="7.43246"><ele></ele><time>2019-7-16T22:2:34Z</time></trkpt>
<trkpt lat="46.19973" lon="7.43265"><ele></ele><time>2019-7-16T22:2:37Z</time></trkpt>
<trkpt lat="46.19964" lon="7.43287"><ele></ele><time>2019-7-16T22:2:40Z</time></trkpt>
<trkpt lat="46.19958" lon="7.43312"><ele></ele><time>2019-7-16T22:2:43Z</time></trkpt>
<trkpt lat="46.19952" lon="7.43337"><ele></ele><time>2019-7-16T22:2:46Z</time></trkpt>
<trkpt lat="46.19945" lon="7.43363"><ele></ele><time>2019-7-16T22:2:49Z</time></trkpt>
<trkpt lat="46.19939" lon="7.43388"><ele></ele><time>2019-7-16T22:2:52Z</time></trkpt>
<trkpt lat="46.19929" lon="7.43421"><ele></ele><time>2019-7-16T22:2:55Z</time></trkpt>
<trkpt lat="46.19923" lon="7.43446"><ele></ele><time>2019-7-16T22:2:58Z</time></trkpt>
<trkpt lat="46.19916" lon="7.43471"><ele></ele><time>2019-7-16T22:3:1Z</time></trkpt>
<trkpt lat="46.19918" lon="7.43497"><ele></ele><time>2019-7-16T22:3:4Z</time></trkpt>
<trkpt lat="46.19925" lon="7.43523"><ele></ele><time>2019-7-16T22:3:7Z</time></trkpt>
<trkpt lat="46.19926" lon="7.4353"><ele></ele><time>2019-7-16T22:3:10Z</time></trkpt>
<trkpt lat="46.19928" lon="7.43543"><ele></ele><time>2019-7-16T22:3:13Z</time></trkpt>
<trkpt lat="46.1993" lon="7.4357"><ele></ele><time>2019-7-16T22:3:16Z</time></trkpt>
<trkpt lat="46.19925" lon="7.43603"><ele></ele><time>2019-7-16T22:3:19Z</time></trkpt>
<trkpt lat="46.19921" lon="7.43629"><ele></ele><time>2019-7-16T22:3:22Z</time></trkpt>
<trkpt lat="46.1992" lon="7.43656"><ele></ele><time>2019-7-16T22:3:25Z</time></trkpt>
<trkpt lat="46.19919" lon="7.43658"><ele></ele><time>2019-7-16T22:3:28Z</time></trkpt>
<trkpt lat="46.1991" lon="7.43665"><ele></ele><time>2019-7-16T22:3:31Z</time></trkpt>
<trkpt lat="46.1991" lon="7.43674"><ele></ele><time>2019-7-16T22:3:34Z</time></trkpt>
<trkpt lat="46.19911" lon="7.4368"><ele></ele><time>2019-7-16T22:3:37Z</time></trkpt>
<trkpt lat="46.19903" lon="7.43714"><ele></ele><time>2019-7-16T22:3:40Z</time></trkpt>
<trkpt lat="46.199" lon="7.43725"><ele></ele><time>2019-7-16T22:3:43Z</time></trkpt>
<trkpt lat="46.19893" lon="7.43734"><ele></ele><time>2019-7-16T22:3:46Z</time></trkpt>
<trkpt lat="46.19879" lon="7.43752"><ele></ele><time>2019-7-16T22:3:49Z</time></trkpt>
<trkpt lat="46.19868" lon="7.43773"><ele></ele><time>2019-7-16T22:3:52Z</time></trkpt>
<trkpt lat="46.19856" lon="7.43794"><ele></ele><time>2019-7-16T22:3:55Z</time></trkpt>
<trkpt lat="46.19844" lon="7.43814"><ele></ele><time>2019-7-16T22:3:58Z</time></trkpt>
<trkpt lat="46.19836" lon="7.43831"><ele></ele><time>2019-7-16T22:4:1Z</time></trkpt>
<trkpt lat="46.19832" lon="7.43839"><ele></ele><time>2019-7-16T22:4:4Z</time></trkpt>
<trkpt lat="46.19829" lon="7.43845"><ele></ele><time>2019-7-16T22:4:7Z</time></trkpt>
<trkpt lat="46.19826" lon="7.43852"><ele></ele><time>2019-7-16T22:4:10Z</time></trkpt>
<trkpt lat="46.19816" lon="7.43876"><ele></ele><time>2019-7-16T22:4:13Z</time></trkpt>
<trkpt lat="46.19809" lon="7.439"><ele></ele><time>2019-7-16T22:4:16Z</time></trkpt>
<trkpt lat="46.198" lon="7.43933"><ele></ele><time>2019-7-16T22:4:19Z</time></trkpt>
<trkpt lat="46.19795" lon="7.43956"><ele></ele><time>2019-7-16T22:4:22Z</time></trkpt>
<trkpt lat="46.19791" lon="7.43981"><ele></ele><time>2019-7-16T22:4:25Z</time></trkpt>
<trkpt lat="46.19788" lon="7.44006"><ele></ele><time>2019-7-16T22:4:28Z</time></trkpt>
<trkpt lat="46.19784" lon="7.44033"><ele></ele><time>2019-7-16T22:4:31Z</time></trkpt>
<trkpt lat="46.1978" lon="7.4406"><ele></ele><time>2019-7-16T22:4:34Z</time></trkpt>
<trkpt lat="46.19779" lon="7.44072"><ele></ele><time>2019-7-16T22:4:37Z</time></trkpt>
<trkpt lat="46.19775" lon="7.44087"><ele></ele><time>2019-7-16T22:4:40Z</time></trkpt>
<trkpt lat="46.19775" lon="7.44115"><ele></ele><time>2019-7-16T22:4:43Z</time></trkpt>
<trkpt lat="46.19783" lon="7.44149"><ele></ele><time>2019-7-16T22:4:46Z</time></trkpt>
<trkpt lat="46.19786" lon="7.44154"><ele></ele><time>2019-7-16T22:4:49Z</time></trkpt>
<trkpt lat="46.19788" lon="7.44141"><ele></ele><time>2019-7-16T22:4:52Z</time></trkpt>
<trkpt lat="46.19794" lon="7.44115"><ele></ele><time>2019-7-16T22:4:55Z</time></trkpt>
<trkpt lat="46.19796" lon="7.44108"><ele></ele><time>2019-7-16T22:4:58Z</time></trkpt>
<trkpt lat="46.19791" lon="7.44118"><ele></ele><time>2019-7-16T22:5:1Z</time></trkpt>
<trkpt lat="46.19789" lon="7.44139"><ele></ele><time>2019-7-16T22:5:4Z</time></trkpt>
<trkpt lat="46.19785" lon="7.44167"><ele></ele><time>2019-7-16T22:5:7Z</time></trkpt>
<trkpt lat="46.19782" lon="7.44206"><ele></ele><time>2019-7-16T22:5:10Z</time></trkpt>
<trkpt lat="46.19783" lon="7.44234"><ele></ele><time>2019-7-16T22:5:13Z</time></trkpt>
<trkpt lat="46.19783" lon="7.4424"><ele></ele><time>2019-7-16T22:5:16Z</time></trkpt>
<trkpt lat="46.19784" lon="7.44268"><ele></ele><time>2019-7-16T22:5:19Z</time></trkpt>
<trkpt lat="46.19785" lon="7.44284"><ele></ele><time>2019-7-16T22:5:22Z</time></trkpt>
<trkpt lat="46.19785" lon="7.44296"><ele></ele><time>2019-7-16T22:5:25Z</time></trkpt>
<trkpt lat="46.19785" lon="7.4433"><ele></ele><time>2019-7-16T22:5:28Z</time></trkpt>
<trkpt lat="46.19786" lon="7.44358"><ele></ele><time>2019-7-16T22:5:31Z</time></trkpt>
<trkpt lat="46.19787" lon="7.44384"><ele></ele><time>2019-7-16T22:5:34Z</time></trkpt>
<trkpt lat="46.19788" lon="7.44411"><ele></ele><time>2019-7-16T22:5:37Z</time></trkpt>
<trkpt lat="46.19789" lon="7.44438"><ele></ele><time>2019-7-16T22:5:40Z</time></trkpt>
<trkpt lat="46.19789" lon="7.44466"><ele></ele><time>2019-7-16T22:5:43Z</time></trkpt>
<trkpt lat="46.19791" lon="7.44493"><ele></ele><time>2019-7-16T22:5:46Z</time></trkpt>
<trkpt lat="46.1979" lon="7.44519"><ele></ele><time>2019-7-16T22:5:49Z</time></trkpt>
<trkpt lat="46.19791" lon="7.44536"><ele></ele><time>2019-7-16T22:5:52Z</time></trkpt>
<trkpt lat="46.19795" lon="7.44563"><ele></ele><time>2019-7-16T22:5:55Z</time></trkpt>
<trkpt lat="46.19805" lon="7.44567"><ele></ele><time>2019-7-16T22:5:58Z</time></trkpt>
<trkpt lat="46.19806" lon="7.44555"><ele></ele><time>2019-7-16T22:6:1Z</time></trkpt>
<trkpt lat="46.19806" lon="7.44526"><ele></ele><time>2019-7-16T22:6:4Z</time></trkpt>
<trkpt lat="46.19806" lon="7.44499"><ele></ele><time>2019-7-16T22:6:7Z</time></trkpt>
<trkpt lat="46.19812" lon="7.44473"><ele></ele><time>2019-7-16T22:6:10Z</time></trkpt>
<trkpt lat="46.19818" lon="7.44447"><ele></ele><time>2019-7-16T22:6:13Z</time></trkpt>
<trkpt lat="46.19821" lon="7.44433"><ele></ele><time>2019-7-16T22:6:16Z</time></trkpt>
<trkpt lat="46.19824" lon="7.44407"><ele></ele><time>2019-7-16T22:6:19Z</time></trkpt>
<trkpt lat="46.19829" lon="7.44374"><ele></ele><time>2019-7-16T22:6:22Z</time></trkpt>
<trkpt lat="46.19839" lon="7.44353"><ele></ele><time>2019-7-16T22:6:25Z</time></trkpt>
<trkpt lat="46.19843" lon="7.44347"><ele></ele><time>2019-7-16T22:6:28Z</time></trkpt>
<trkpt lat="46.1985" lon="7.44349"><ele></ele><time>2019-7-16T22:6:31Z</time></trkpt>
<trkpt lat="46.19854" lon="7.44346"><ele></ele><time>2019-7-16T22:6:34Z</time></trkpt>
<trkpt lat="46.19865" lon="7.44326"><ele></ele><time>2019-7-16T22:6:37Z</time></trkpt>
<trkpt lat="46.19875" lon="7.44303"><ele></ele><time>2019-7-16T22:6:40Z</time></trkpt>
<trkpt lat="46.1989" lon="7.44276"><ele></ele><time>2019-7-16T22:6:43Z</time></trkpt>
<trkpt lat="46.19901" lon="7.44253"><ele></ele><time>2019-7-16T22:6:46Z</time></trkpt>
<trkpt lat="46.19902" lon="7.44252"><ele></ele><time>2019-7-16T22:6:49Z</time></trkpt>
<trkpt lat="46.19915" lon="7.44241"><ele></ele><time>2019-7-16T22:6:52Z</time></trkpt>
<trkpt lat="46.19919" lon="7.44238"><ele></ele><time>2019-7-16T22:6:55Z</time></trkpt>
<trkpt lat="46.19932" lon="7.44225"><ele></ele><time>2019-7-16T22:6:58Z</time></trkpt>
<trkpt lat="46.19949" lon="7.44205"><ele></ele><time>2019-7-16T22:7:1Z</time></trkpt>
<trkpt lat="46.19956" lon="7.44197"><ele></ele><time>2019-7-16T22:7:4Z</time></trkpt>
<trkpt lat="46.19965" lon="7.44178"><ele></ele><time>2019-7-16T22:7:7Z</time></trkpt>
<trkpt lat="46.19972" lon="7.44175"><ele></ele><time>2019-7-16T22:7:10Z</time></trkpt>
<trkpt lat="46.19982" lon="7.44168"><ele></ele><time>2019-7-16T22:7:13Z</time></trkpt>
<trkpt lat="46.19999" lon="7.44157"><ele></ele><time>2019-7-16T22:7:16Z</time></trkpt>
<trkpt lat="46.20017" lon="7.44151"><ele></ele><time>2019-7-16T22:7:19Z</time></trkpt>
<trkpt lat="46.20036" lon="7.44153"><ele></ele><time>2019-7-16T22:7:22Z</time></trkpt>
<trkpt lat="46.20047" lon="7.44162"><ele></ele><time>2019-7-16T22:7:25Z</time></trkpt>
<trkpt lat="46.20051" lon="7.44165"><ele></ele><time>2019-7-16T22:7:28Z</time></trkpt>
<trkpt lat="46.2007" lon="7.44159"><ele></ele><time>2019-7-16T22:7:31Z</time></trkpt>
<trkpt lat="46.20086" lon="7.4416"><ele></ele><time>2019-7-16T22:7:34Z</time></trkpt>
<trkpt lat="46.20105" lon="7.44158"><ele></ele><time>2019-7-16T22:7:37Z</time></trkpt>
<trkpt lat="46.20124" lon="7.44158"><ele></ele><time>2019-7-16T22:7:40Z</time></trkpt>
<trkpt lat="46.20137" lon="7.44161"><ele></ele><time>2019-7-16T22:7:43Z</time></trkpt>
<trkpt lat="46.20156" lon="7.44166"><ele></ele><time>2019-7-16T22:7:46Z</time></trkpt>
<trkpt lat="46.20165" lon="7.44169"><ele></ele><time>2019-7-16T22:7:49Z</time></trkpt>
<trkpt lat="46.20171" lon="7.44169"><ele></ele><time>2019-7-16T22:7:52Z</time></trkpt>
<trkpt lat="46.2019" lon="7.44164"><ele></ele><time>2019-7-16T22:7:55Z</time></trkpt>
<trkpt lat="46.20199" lon="7.44165"><ele></ele><time>2019-7-16T22:7:58Z</time></trkpt>
<trkpt lat="46.20201" lon="7.44167"><ele></ele><time>2019-7-16T22:8:1Z</time></trkpt>
<trkpt lat="46.2021" lon="7.44178"><ele></ele><time>2019-7-16T22:8:4Z</time></trkpt>
<trkpt lat="46.20221" lon="7.44185"><ele></ele><time>2019-7-16T22:8:7Z</time></trkpt>
<trkpt lat="46.20226" lon="7.44186"><ele></ele><time>2019-7-16T22:8:10Z</time></trkpt>
<trkpt lat="46.20238" lon="7.44192"><ele></ele><time>2019-7-16T22:8:13Z</time></trkpt>
<trkpt lat="46.20238" lon="7.44207"><ele></ele><time>2019-7-16T22:8:16Z</time></trkpt>
<trkpt lat="46.20226" lon="7.44228"><ele></ele><time>2019-7-16T22:8:19Z</time></trkpt>
<trkpt lat="46.20209" lon="7.44237"><ele></ele><time>2019-7-16T22:8:22Z</time></trkpt>
<trkpt lat="46.20187" lon="7.4424"><ele></ele><time>2019-7-16T22:8:25Z</time></trkpt>
<trkpt lat="46.2017" lon="7.4425"><ele></ele><time>2019-7-16T22:8:28Z</time></trkpt>
<trkpt lat="46.20159" lon="7.4427"><ele></ele><time>2019-7-16T22:8:31Z</time></trkpt>
<trkpt lat="46.20156" lon="7.44278"><ele></ele><time>2019-7-16T22:8:34Z</time></trkpt>
<trkpt lat="46.20148" lon="7.44303"><ele></ele><time>2019-7-16T22:8:37Z</time></trkpt>
<trkpt lat="46.20146" lon="7.44308"><ele></ele><time>2019-7-16T22:8:40Z</time></trkpt>
<trkpt lat="46.20134" lon="7.44329"><ele></ele><time>2019-7-16T22:8:43Z</time></trkpt>
<trkpt lat="46.20123" lon="7.44348"><ele></ele><time>2019-7-16T22:8:46Z</time></trkpt>
<trkpt lat="46.20119" lon="7.4436"><ele></ele><time>2019-7-16T22:8:49Z</time></trkpt>
<trkpt lat="46.20111" lon="7.44381"><ele></ele><time>2019-7-16T22:8:52Z</time></trkpt>
<trkpt lat="46.20108" lon="7.44392"><ele></ele><time>2019-7-16T22:8:55Z</time></trkpt>
<trkpt lat="46.20106" lon="7.44403"><ele></ele><time>2019-7-16T22:8:58Z</time></trkpt>
<trkpt lat="46.20107" lon="7.44416"><ele></ele><time>2019-7-16T22:9:1Z</time></trkpt>
<trkpt lat="46.20108" lon="7.44442"><ele></ele><time>2019-7-16T22:9:4Z</time></trkpt>
<trkpt lat="46.20098" lon="7.44464"><ele></ele><time>2019-7-16T22:9:7Z</time></trkpt>
<trkpt lat="46.20078" lon="7.44484"><ele></ele><time>2019-7-16T22:9:10Z</time></trkpt>
<trkpt lat="46.20071" lon="7.44495"><ele></ele><time>2019-7-16T22:9:13Z</time></trkpt>
<trkpt lat="46.20063" lon="7.44506"><ele></ele><time>2019-7-16T22:9:16Z</time></trkpt>
<trkpt lat="46.20055" lon="7.44523"><ele></ele><time>2019-7-16T22:9:19Z</time></trkpt>
<trkpt lat="46.20052" lon="7.44531"><ele></ele><time>2019-7-16T22:9:22Z</time></trkpt>
<trkpt lat="46.20047" lon="7.44551"><ele></ele><time>2019-7-16T22:9:25Z</time></trkpt>
<trkpt lat="46.2004" lon="7.44576"><ele></ele><time>2019-7-16T22:9:28Z</time></trkpt>
<trkpt lat="46.20036" lon="7.44602"><ele></ele><time>2019-7-16T22:9:31Z</time></trkpt>
<trkpt lat="46.20034" lon="7.44628"><ele></ele><time>2019-7-16T22:9:34Z</time></trkpt>
<trkpt lat="46.20034" lon="7.44638"><ele></ele><time>2019-7-16T22:9:37Z</time></trkpt>
<trkpt lat="46.20032" lon="7.44659"><ele></ele><time>2019-7-16T22:9:40Z</time></trkpt>
<trkpt lat="46.2003" lon="7.44667"><ele></ele><time>2019-7-16T22:9:43Z</time></trkpt>
<trkpt lat="46.20029" lon="7.44676"><ele></ele><time>2019-7-16T22:9:46Z</time></trkpt>
<trkpt lat="46.20029" lon="7.44683"><ele></ele><time>2019-7-16T22:9:49Z</time></trkpt>
<trkpt lat="46.20026" lon="7.44686"><ele></ele><time>2019-7-16T22:9:52Z</time></trkpt>
<trkpt lat="46.20026" lon="7.44687"><ele></ele><time>2019-7-16T22:9:55Z</time></trkpt>
<trkpt lat="46.20019" lon="7.44716"><ele></ele><time>2019-7-16T22:9:58Z</time></trkpt>
<trkpt lat="46.20012" lon="7.4474"><ele></ele><time>2019-7-16T22:10:1Z</time></trkpt>
<trkpt lat="46.20009" lon="7.44748"><ele></ele><time>2019-7-16T22:10:4Z</time></trkpt>
<trkpt lat="46.20006" lon="7.44756"><ele></ele><time>2019-7-16T22:10:7Z</time></trkpt>
<trkpt lat="46.20001" lon="7.44781"><ele></ele><time>2019-7-16T22:10:10Z</time></trkpt>
<trkpt lat="46.20001" lon="7.44786"><ele></ele><time>2019-7-16T22:10:13Z</time></trkpt>
<trkpt lat="46.20005" lon="7.44811"><ele></ele><time>2019-7-16T22:10:16Z</time></trkpt>
<trkpt lat="46.20013" lon="7.44831"><ele></ele><time>2019-7-16T22:10:19Z</time></trkpt>
<trkpt lat="46.20018" lon="7.44848"><ele></ele><time>2019-7-16T22:10:22Z</time></trkpt>
<trkpt lat="46.20019" lon="7.44852"><ele></ele><time>2019-7-16T22:10:25Z</time></trkpt>
<trkpt lat="46.20023" lon="7.44877"><ele></ele><time>2019-7-16T22:10:28Z</time></trkpt>
<trkpt lat="46.20023" lon="7.44903"><ele></ele><time>2019-7-16T22:10:31Z</time></trkpt>
<trkpt lat="46.20023" lon="7.44918"><ele></ele><time>2019-7-16T22:10:34Z</time></trkpt>
<trkpt lat="46.20015" lon="7.44948"><ele></ele><time>2019-7-16T22:10:37Z</time></trkpt>
<trkpt lat="46.20014" lon="7.4495"><ele></ele><time>2019-7-16T22:10:40Z</time></trkpt>
<trkpt lat="46.20009" lon="7.44957"><ele></ele><time>2019-7-16T22:10:43Z</time></trkpt>
<trkpt lat="46.20001" lon="7.4497"><ele></ele><time>2019-7-16T22:10:46Z</time></trkpt>
<trkpt lat="46.19999" lon="7.44974"><ele></ele><time>2019-7-16T22:10:49Z</time></trkpt>
<trkpt lat="46.19999" lon="7.44979"><ele></ele><time>2019-7-16T22:10:52Z</time></trkpt>
<trkpt lat="46.19999" lon="7.44984"><ele></ele><time>2019-7-16T22:10:55Z</time></trkpt>
<trkpt lat="46.20006" lon="7.44986"><ele></ele><time>2019-7-16T22:10:58Z</time></trkpt>
<trkpt lat="46.20013" lon="7.44977"><ele></ele><time>2019-7-16T22:11:1Z</time></trkpt>
<trkpt lat="46.20015" lon="7.44974"><ele></ele><time>2019-7-16T22:11:4Z</time></trkpt>
<trkpt lat="46.20018" lon="7.4497"><ele></ele><time>2019-7-16T22:11:7Z</time></trkpt>
<trkpt lat="46.20022" lon="7.44962"><ele></ele><time>2019-7-16T22:11:10Z</time></trkpt>
<trkpt lat="46.20027" lon="7.44949"><ele></ele><time>2019-7-16T22:11:13Z</time></trkpt>
<trkpt lat="46.2004" lon="7.44932"><ele></ele><time>2019-7-16T22:11:16Z</time></trkpt>
<trkpt lat="46.20053" lon="7.44913"><ele></ele><time>2019-7-16T22:11:19Z</time></trkpt>
<trkpt lat="46.20063" lon="7.4489"><ele></ele><time>2019-7-16T22:11:22Z</time></trkpt>
<trkpt lat="46.20068" lon="7.44881"><ele></ele><time>2019-7-16T22:11:25Z</time></trkpt>
<trkpt lat="46.2008" lon="7.4486"><ele></ele><time>2019-7-16T22:11:28Z</time></trkpt>
<trkpt lat="46.20086" lon="7.4484"><ele></ele><time>2019-7-16T22:11:31Z</time></trkpt>
<trkpt lat="46.20087" lon="7.44834"><ele></ele><time>2019-7-16T22:11:34Z</time></trkpt>
<trkpt lat="46.20094" lon="7.44809"><ele></ele><time>2019-7-16T22:11:37Z</time></trkpt>
<trkpt lat="46.20114" lon="7.44798"><ele></ele><time>2019-7-16T22:11:40Z</time></trkpt>
<trkpt lat="46.20126" lon="7.44797"><ele></ele><time>2019-7-16T22:11:43Z</time></trkpt>
<trkpt lat="46.20143" lon="7.44786"><ele></ele><time>2019-7-16T22:11:46Z</time></trkpt>
<trkpt lat="46.20159" lon="7.44775"><ele></ele><time>2019-7-16T22:11:49Z</time></trkpt>
<trkpt lat="46.20164" lon="7.44773"><ele></ele><time>2019-7-16T22:11:52Z</time></trkpt>
<trkpt lat="46.20182" lon="7.44764"><ele></ele><time>2019-7-16T22:11:55Z</time></trkpt>
<trkpt lat="46.202" lon="7.44754"><ele></ele><time>2019-7-16T22:11:58Z</time></trkpt>
<trkpt lat="46.20209" lon="7.44749"><ele></ele><time>2019-7-16T22:12:1Z</time></trkpt>
<trkpt lat="46.20228" lon="7.44746"><ele></ele><time>2019-7-16T22:12:4Z</time></trkpt>
<trkpt lat="46.2023" lon="7.44747"><ele></ele><time>2019-7-16T22:12:7Z</time></trkpt>
<trkpt lat="46.20235" lon="7.44746"><ele></ele><time>2019-7-16T22:12:10Z</time></trkpt>
<trkpt lat="46.20253" lon="7.44749"><ele></ele><time>2019-7-16T22:12:13Z</time></trkpt>
<trkpt lat="46.20276" lon="7.4476"><ele></ele><time>2019-7-16T22:12:16Z</time></trkpt>
<trkpt lat="46.2028" lon="7.44761"><ele></ele><time>2019-7-16T22:12:19Z</time></trkpt>
<trkpt lat="46.20283" lon="7.44765"><ele></ele><time>2019-7-16T22:12:22Z</time></trkpt>
<trkpt lat="46.203" lon="7.44776"><ele></ele><time>2019-7-16T22:12:25Z</time></trkpt>
<trkpt lat="46.20315" lon="7.44791"><ele></ele><time>2019-7-16T22:12:28Z</time></trkpt>
<trkpt lat="46.20322" lon="7.44799"><ele></ele><time>2019-7-16T22:12:31Z</time></trkpt>
<trkpt lat="46.20326" lon="7.44801"><ele></ele><time>2019-7-16T22:12:34Z</time></trkpt>
<trkpt lat="46.20336" lon="7.44816"><ele></ele><time>2019-7-16T22:12:37Z</time></trkpt>
<trkpt lat="46.20338" lon="7.44818"><ele></ele><time>2019-7-16T22:12:40Z</time></trkpt>
<trkpt lat="46.20345" lon="7.44824"><ele></ele><time>2019-7-16T22:12:43Z</time></trkpt>
<trkpt lat="46.20351" lon="7.44832"><ele></ele><time>2019-7-16T22:12:46Z</time></trkpt>
<trkpt lat="46.20353" lon="7.44834"><ele></ele><time>2019-7-16T22:12:49Z</time></trkpt>
<trkpt lat="46.20349" lon="7.44846"><ele></ele><time>2019-7-16T22:12:52Z</time></trkpt>
<trkpt lat="46.20342" lon="7.44844"><ele></ele><time>2019-7-16T22:12:55Z</time></trkpt>
<trkpt lat="46.20325" lon="7.44833"><ele></ele><time>2019-7-16T22:12:58Z</time></trkpt>
<trkpt lat="46.2032" lon="7.44829"><ele></ele><time>2019-7-16T22:13:1Z</time></trkpt>
<trkpt lat="46.20312" lon="7.4482"><ele></ele><time>2019-7-16T22:13:4Z</time></trkpt>
<trkpt lat="46.20302" lon="7.44813"><ele></ele><time>2019-7-16T22:13:7Z</time></trkpt>
<trkpt lat="46.20276" lon="7.44812"><ele></ele><time>2019-7-16T22:13:10Z</time></trkpt>
<trkpt lat="46.20257" lon="7.44817"><ele></ele><time>2019-7-16T22:13:13Z</time></trkpt>
<trkpt lat="46.20246" lon="7.44817"><ele></ele><time>2019-7-16T22:13:16Z</time></trkpt>
<trkpt lat="46.20233" lon="7.44836"><ele></ele><time>2019-7-16T22:13:19Z</time></trkpt>
<trkpt lat="46.20229" lon="7.4484"><ele></ele><time>2019-7-16T22:13:22Z</time></trkpt>
<trkpt lat="46.20219" lon="7.4485"><ele></ele><time>2019-7-16T22:13:25Z</time></trkpt>
<trkpt lat="46.20212" lon="7.44854"><ele></ele><time>2019-7-16T22:13:28Z</time></trkpt>
<trkpt lat="46.20194" lon="7.44873"><ele></ele><time>2019-7-16T22:13:31Z</time></trkpt>
<trkpt lat="46.20182" lon="7.44895"><ele></ele><time>2019-7-16T22:13:34Z</time></trkpt>
<trkpt lat="46.20181" lon="7.44898"><ele></ele><time>2019-7-16T22:13:37Z</time></trkpt>
<trkpt lat="46.20177" lon="7.44907"><ele></ele><time>2019-7-16T22:13:40Z</time></trkpt>
<trkpt lat="46.20163" lon="7.44926"><ele></ele><time>2019-7-16T22:13:43Z</time></trkpt>
<trkpt lat="46.20157" lon="7.44931"><ele></ele><time>2019-7-16T22:13:46Z</time></trkpt>
<trkpt lat="46.20152" lon="7.44938"><ele></ele><time>2019-7-16T22:13:49Z</time></trkpt>
<trkpt lat="46.20148" lon="7.44943"><ele></ele><time>2019-7-16T22:13:52Z</time></trkpt>
<trkpt lat="46.20139" lon="7.44981"><ele></ele><time>2019-7-16T22:13:55Z</time></trkpt>
<trkpt lat="46.20136" lon="7.45008"><ele></ele><time>2019-7-16T22:13:58Z</time></trkpt>
<trkpt lat="46.20129" lon="7.45033"><ele></ele><time>2019-7-16T22:14:1Z</time></trkpt>
<trkpt lat="46.20118" lon="7.45055"><ele></ele><time>2019-7-16T22:14:4Z</time></trkpt>
<trkpt lat="46.20109" lon="7.45077"><ele></ele><time>2019-7-16T22:14:7Z</time></trkpt>
<trkpt lat="46.20096" lon="7.45097"><ele></ele><time>2019-7-16T22:14:10Z</time></trkpt>
<trkpt lat="46.20082" lon="7.45116"><ele></ele><time>2019-7-16T22:14:13Z</time></trkpt>
<trkpt lat="46.2007" lon="7.45137"><ele></ele><time>2019-7-16T22:14:16Z</time></trkpt>
<trkpt lat="46.20062" lon="7.45155"><ele></ele><time>2019-7-16T22:14:19Z</time></trkpt>
<trkpt lat="46.20051" lon="7.45177"><ele></ele><time>2019-7-16T22:14:22Z</time></trkpt>
<trkpt lat="46.20026" lon="7.4521"><ele></ele><time>2019-7-16T22:14:25Z</time></trkpt>
<trkpt lat="46.20012" lon="7.4523"><ele></ele><time>2019-7-16T22:14:28Z</time></trkpt>
<trkpt lat="46.20007" lon="7.45245"><ele></ele><time>2019-7-16T22:14:31Z</time></trkpt>
<trkpt lat="46.20005" lon="7.45249"><ele></ele><time>2019-7-16T22:14:34Z</time></trkpt>
<trkpt lat="46.19999" lon="7.45275"><ele></ele><time>2019-7-16T22:14:37Z</time></trkpt>
<trkpt lat="46.19994" lon="7.45295"><ele></ele><time>2019-7-16T22:14:40Z</time></trkpt>
<trkpt lat="46.1999" lon="7.45308"><ele></ele><time>2019-7-16T22:14:43Z</time></trkpt>
<trkpt lat="46.19989" lon="7.45324"><ele></ele><time>2019-7-16T22:14:46Z</time></trkpt>
<trkpt lat="46.19989" lon="7.45329"><ele></ele><time>2019-7-16T22:14:49Z</time></trkpt>
<trkpt lat="46.19991" lon="7.45339"><ele></ele><time>2019-7-16T22:14:52Z</time></trkpt>
<trkpt lat="46.19996" lon="7.45363"><ele></ele><time>2019-7-16T22:14:55Z</time></trkpt>
<trkpt lat="46.19997" lon="7.4537"><ele></ele><time>2019-7-16T22:14:58Z</time></trkpt>
<trkpt lat="46.19999" lon="7.45386"><ele></ele><time>2019-7-16T22:15:1Z</time></trkpt>
<trkpt lat="46.19999" lon="7.45411"><ele></ele><time>2019-7-16T22:15:4Z</time></trkpt>
<trkpt lat="46.19999" lon="7.45414"><ele></ele><time>2019-7-16T22:15:7Z</time></trkpt>
<trkpt lat="46.19999" lon="7.4543"><ele></ele><time>2019-7-16T22:15:10Z</time></trkpt>
<trkpt lat="46.19999" lon="7.45434"><ele></ele><time>2019-7-16T22:15:13Z</time></trkpt>
<trkpt lat="46.2" lon="7.45439"><ele></ele><time>2019-7-16T22:15:16Z</time></trkpt>
<trkpt lat="46.2" lon="7.45463"><ele></ele><time>2019-7-16T22:15:19Z</time></trkpt>
<trkpt lat="46.20002" lon="7.4549"><ele></ele><time>2019-7-16T22:15:22Z</time></trkpt>
<trkpt lat="46.20005" lon="7.45517"><ele></ele><time>2019-7-16T22:15:25Z</time></trkpt>
<trkpt lat="46.20007" lon="7.45543"><ele></ele><time>2019-7-16T22:15:28Z</time></trkpt>
<trkpt lat="46.20011" lon="7.45569"><ele></ele><time>2019-7-16T22:15:31Z</time></trkpt>
<trkpt lat="46.20014" lon="7.45595"><ele></ele><time>2019-7-16T22:15:34Z</time></trkpt>
<trkpt lat="46.20017" lon="7.45621"><ele></ele><time>2019-7-16T22:15:37Z</time></trkpt>
<trkpt lat="46.2002" lon="7.45653"><ele></ele><time>2019-7-16T22:15:40Z</time></trkpt>
<trkpt lat="46.20022" lon="7.45669"><ele></ele><time>2019-7-16T22:15:43Z</time></trkpt>
<trkpt lat="46.20025" lon="7.45683"><ele></ele><time>2019-7-16T22:15:46Z</time></trkpt>
<trkpt lat="46.20028" lon="7.45709"><ele></ele><time>2019-7-16T22:15:49Z</time></trkpt>
<trkpt lat="46.20031" lon="7.45735"><ele></ele><time>2019-7-16T22:15:52Z</time></trkpt>
<trkpt lat="46.20031" lon="7.45738"><ele></ele><time>2019-7-16T22:15:55Z</time></trkpt>
<trkpt lat="46.20031" lon="7.45751"><ele></ele><time>2019-7-16T22:15:58Z</time></trkpt>
<trkpt lat="46.20033" lon="7.45777"><ele></ele><time>2019-7-16T22:16:1Z</time></trkpt>
<trkpt lat="46.20033" lon="7.4579"><ele></ele><time>2019-7-16T22:16:4Z</time></trkpt>
<trkpt lat="46.20033" lon="7.45799"><ele></ele><time>2019-7-16T22:16:7Z</time></trkpt>
<trkpt lat="46.20032" lon="7.45805"><ele></ele><time>2019-7-16T22:16:10Z</time></trkpt>
<trkpt lat="46.2003" lon="7.45831"><ele></ele><time>2019-7-16T22:16:13Z</time></trkpt>
<trkpt lat="46.20028" lon="7.45857"><ele></ele><time>2019-7-16T22:16:16Z</time></trkpt>
<trkpt lat="46.20026" lon="7.45882"><ele></ele><time>2019-7-16T22:16:19Z</time></trkpt>
<trkpt lat="46.20027" lon="7.45906"><ele></ele><time>2019-7-16T22:16:22Z</time></trkpt>
<trkpt lat="46.20028" lon="7.45921"><ele></ele><time>2019-7-16T22:16:25Z</time></trkpt>
<trkpt lat="46.2003" lon="7.45933"><ele></ele><time>2019-7-16T22:16:28Z</time></trkpt>
<trkpt lat="46.20034" lon="7.45949"><ele></ele><time>2019-7-16T22:16:31Z</time></trkpt>
<trkpt lat="46.20036" lon="7.45958"><ele></ele><time>2019-7-16T22:16:34Z</time></trkpt>
<trkpt lat="46.20039" lon="7.45966"><ele></ele><time>2019-7-16T22:16:37Z</time></trkpt>
<trkpt lat="46.20039" lon="7.45969"><ele></ele><time>2019-7-16T22:16:40Z</time></trkpt>
<trkpt lat="46.20047" lon="7.45991"><ele></ele><time>2019-7-16T22:16:43Z</time></trkpt>
<trkpt lat="46.20049" lon="7.46"><ele></ele><time>2019-7-16T22:16:46Z</time></trkpt>
<trkpt lat="46.20054" lon="7.46021"><ele></ele><time>2019-7-16T22:16:49Z</time></trkpt>
<trkpt lat="46.20057" lon="7.46045"><ele></ele><time>2019-7-16T22:16:52Z</time></trkpt>
<trkpt lat="46.20057" lon="7.46067"><ele></ele><time>2019-7-16T22:16:55Z</time></trkpt>
<trkpt lat="46.20059" lon="7.46075"><ele></ele><time>2019-7-16T22:16:58Z</time></trkpt>
<trkpt lat="46.20067" lon="7.46099"><ele></ele><time>2019-7-16T22:17:1Z</time></trkpt>
<trkpt lat="46.20079" lon="7.4612"><ele></ele><time>2019-7-16T22:17:4Z</time></trkpt>
<trkpt lat="46.20081" lon="7.46126"><ele></ele><time>2019-7-16T22:17:7Z</time></trkpt>
<trkpt lat="46.20084" lon="7.4614"><ele></ele><time>2019-7-16T22:17:10Z</time></trkpt>
<trkpt lat="46.20084" lon="7.46168"><ele></ele><time>2019-7-16T22:17:13Z</time></trkpt>
<trkpt lat="46.20085" lon="7.46171"><ele></ele><time>2019-7-16T22:17:16Z</time></trkpt>
<trkpt lat="46.20087" lon="7.46179"><ele></ele><time>2019-7-16T22:17:19Z</time></trkpt>
<trkpt lat="46.20087" lon="7.46182"><ele></ele><time>2019-7-16T22:17:22Z</time></trkpt>
<trkpt lat="46.2009" lon="7.46193"><ele></ele><time>2019-7-16T22:17:25Z</time></trkpt>
<trkpt lat="46.2009" lon="7.46207"><ele></ele><time>2019-7-16T22:17:28Z</time></trkpt>
<trkpt lat="46.20095" lon="7.46232"><ele></ele><time>2019-7-16T22:17:31Z</time></trkpt>
<trkpt lat="46.20096" lon="7.46257"><ele></ele><time>2019-7-16T22:17:34Z</time></trkpt>
<trkpt lat="46.20094" lon="7.4628"><ele></ele><time>2019-7-16T22:17:37Z</time></trkpt>
<trkpt lat="46.20094" lon="7.463"><ele></ele><time>2019-7-16T22:17:40Z</time></trkpt>
<trkpt lat="46.20094" lon="7.46305"><ele></ele><time>2019-7-16T22:17:43Z</time></trkpt>
<trkpt lat="46.20094" lon="7.46309"><ele></ele><time>2019-7-16T22:17:46Z</time></trkpt>
<trkpt lat="46.20091" lon="7.46323"><ele></ele><time>2019-7-16T22:17:49Z</time></trkpt>
<trkpt lat="46.2009" lon="7.46331"><ele></ele><time>2019-7-16T22:17:52Z</time></trkpt>
<trkpt lat="46.20088" lon="7.46353"><ele></ele><time>2019-7-16T22:17:55Z</time></trkpt>
<trkpt lat="46.20087" lon="7.46361"><ele></ele><time>2019-7-16T22:17:58Z</time></trkpt>
<trkpt lat="46.20081" lon="7.46385"><ele></ele><time>2019-7-16T22:18:1Z</time></trkpt>
<trkpt lat="46.20083" lon="7.46393"><ele></ele><time>2019-7-16T22:18:4Z</time></trkpt>
<trkpt lat="46.20087" lon="7.46387"><ele></ele><time>2019-7-16T22:18:7Z</time></trkpt>
<trkpt lat="46.20091" lon="7.46381"><ele></ele><time>2019-7-16T22:18:10Z</time></trkpt>
<trkpt lat="46.20104" lon="7.46361"><ele></ele><time>2019-7-16T22:18:13Z</time></trkpt>
<trkpt lat="46.20109" lon="7.46342"><ele></ele><time>2019-7-16T22:18:16Z</time></trkpt>
<trkpt lat="46.20113" lon="7.46325"><ele></ele><time>2019-7-16T22:18:19Z</time></trkpt>
<trkpt lat="46.20118" lon="7.46308"><ele></ele><time>2019-7-16T22:18:22Z</time></trkpt>
<trkpt lat="46.20124" lon="7.46295"><ele></ele><time>2019-7-16T22:18:25Z</time></trkpt>
<trkpt lat="46.20133" lon="7.46281"><ele></ele><time>2019-7-16T22:18:28Z</time></trkpt>
<trkpt lat="46.20135" lon="7.46278"><ele></ele><time>2019-7-16T22:18:31Z</time></trkpt>
<trkpt lat="46.20139" lon="7.46271"><ele></ele><time>2019-7-16T22:18:34Z</time></trkpt>
<trkpt lat="46.20146" lon="7.46258"><ele></ele><time>2019-7-16T22:18:37Z</time></trkpt>
<trkpt lat="46.20156" lon="7.46236"><ele></ele><time>2019-7-16T22:18:40Z</time></trkpt>
<trkpt lat="46.20164" lon="7.46224"><ele></ele><time>2019-7-16T22:18:43Z</time></trkpt>
<trkpt lat="46.20167" lon="7.46216"><ele></ele><time>2019-7-16T22:18:46Z</time></trkpt>
<trkpt lat="46.20174" lon="7.46192"><ele></ele><time>2019-7-16T22:18:49Z</time></trkpt>
<trkpt lat="46.20176" lon="7.46167"><ele></ele><time>2019-7-16T22:18:52Z</time></trkpt>
<trkpt lat="46.20179" lon="7.4614"><ele></ele><time>2019-7-16T22:18:55Z</time></trkpt>
<trkpt lat="46.20188" lon="7.46116"><ele></ele><time>2019-7-16T22:18:58Z</time></trkpt>
<trkpt lat="46.2019" lon="7.46112"><ele></ele><time>2019-7-16T22:19:1Z</time></trkpt>
<trkpt lat="46.20202" lon="7.46091"><ele></ele><time>2019-7-16T22:19:4Z</time></trkpt>
<trkpt lat="46.20205" lon="7.46081"><ele></ele><time>2019-7-16T22:19:7Z</time></trkpt>
<trkpt lat="46.20212" lon="7.46062"><ele></ele><time>2019-7-16T22:19:10Z</time></trkpt>
<trkpt lat="46.20219" lon="7.46044"><ele></ele><time>2019-7-16T22:19:13Z</time></trkpt>
<trkpt lat="46.20222" lon="7.46039"><ele></ele><time>2019-7-16T22:19:16Z</time></trkpt>
<trkpt lat="46.20223" lon="7.46035"><ele></ele><time>2019-7-16T22:19:19Z</time></trkpt>
<trkpt lat="46.20227" lon="7.46028"><ele></ele><time>2019-7-16T22:19:22Z</time></trkpt>
<trkpt lat="46.20229" lon="7.46023"><ele></ele><time>2019-7-16T22:19:25Z</time></trkpt>
<trkpt lat="46.20234" lon="7.46008"><ele></ele><time>2019-7-16T22:19:28Z</time></trkpt>
<trkpt lat="46.20242" lon="7.45995"><ele></ele><time>2019-7-16T22:19:31Z</time></trkpt>
<trkpt lat="46.20247" lon="7.45987"><ele></ele><time>2019-7-16T22:19:34Z</time></trkpt>
<trkpt lat="46.20253" lon="7.45976"><ele></ele><time>2019-7-16T22:19:37Z</time></trkpt>
<trkpt lat="46.20256" lon="7.4597"><ele></ele><time>2019-7-16T22:19:40Z</time></trkpt>
<trkpt lat="46.2026" lon="7.45964"><ele></ele><time>2019-7-16T22:19:43Z</time></trkpt>
<trkpt lat="46.20268" lon="7.45952"><ele></ele><time>2019-7-16T22:19:46Z</time></trkpt>
<trkpt lat="46.20278" lon="7.45931"><ele></ele><time>2019-7-16T22:19:49Z</time></trkpt>
<trkpt lat="46.20293" lon="7.45925"><ele></ele><time>2019-7-16T22:19:52Z</time></trkpt>
<trkpt lat="46.20302" lon="7.45924"><ele></ele><time>2019-7-16T22:19:55Z</time></trkpt>
<trkpt lat="46.20306" lon="7.45923"><ele></ele><time>2019-7-16T22:19:58Z</time></trkpt>
<trkpt lat="46.20307" lon="7.45922"><ele></ele><time>2019-7-16T22:20:1Z</time></trkpt>
<trkpt lat="46.20316" lon="7.45911"><ele></ele><time>2019-7-16T22:20:4Z</time></trkpt>
<trkpt lat="46.2033" lon="7.45895"><ele></ele><time>2019-7-16T22:20:7Z</time></trkpt>
<trkpt lat="46.20338" lon="7.45886"><ele></ele><time>2019-7-16T22:20:10Z</time></trkpt>
<trkpt lat="46.20342" lon="7.45883"><ele></ele><time>2019-7-16T22:20:13Z</time></trkpt>
<trkpt lat="46.20355" lon="7.45868"><ele></ele><time>2019-7-16T22:20:16Z</time></trkpt>
<trkpt lat="46.20366" lon="7.45848"><ele></ele><time>2019-7-16T22:20:19Z</time></trkpt>
<trkpt lat="46.20369" lon="7.45837"><ele></ele><time>2019-7-16T22:20:22Z</time></trkpt>
<trkpt lat="46.20369" lon="7.45831"><ele></ele><time>2019-7-16T22:20:25Z</time></trkpt>
<trkpt lat="46.20375" lon="7.45806"><ele></ele><time>2019-7-16T22:20:28Z</time></trkpt>
<trkpt lat="46.20383" lon="7.45773"><ele></ele><time>2019-7-16T22:20:31Z</time></trkpt>
<trkpt lat="46.20397" lon="7.45754"><ele></ele><time>2019-7-16T22:20:34Z</time></trkpt>
<trkpt lat="46.20414" lon="7.45748"><ele></ele><time>2019-7-16T22:20:37Z</time></trkpt>
<trkpt lat="46.20424" lon="7.45742"><ele></ele><time>2019-7-16T22:20:40Z</time></trkpt>
<trkpt lat="46.20443" lon="7.45736"><ele></ele><time>2019-7-16T22:20:43Z</time></trkpt>
<trkpt lat="46.2046" lon="7.45726"><ele></ele><time>2019-7-16T22:20:46Z</time></trkpt>
<trkpt lat="46.20472" lon="7.45724"><ele></ele><time>2019-7-16T22:20:49Z</time></trkpt>
<trkpt lat="46.20489" lon="7.45712"><ele></ele><time>2019-7-16T22:20:52Z</time></trkpt>
<trkpt lat="46.20505" lon="7.45701"><ele></ele><time>2019-7-16T22:20:55Z</time></trkpt>
<trkpt lat="46.20523" lon="7.45698"><ele></ele><time>2019-7-16T22:20:58Z</time></trkpt>
<trkpt lat="46.20541" lon="7.45696"><ele></ele><time>2019-7-16T22:21:1Z</time></trkpt>
<trkpt lat="46.2056" lon="7.45689"><ele></ele><time>2019-7-16T22:21:4Z</time></trkpt>
<trkpt lat="46.20568" lon="7.45686"><ele></ele><time>2019-7-16T22:21:7Z</time></trkpt>
<trkpt lat="46.20584" lon="7.45677"><ele></ele><time>2019-7-16T22:21:10Z</time></trkpt>
<trkpt lat="46.20592" lon="7.45672"><ele></ele><time>2019-7-16T22:21:13Z</time></trkpt>
<trkpt lat="46.206" lon="7.45666"><ele></ele><time>2019-7-16T22:21:16Z</time></trkpt>
<trkpt lat="46.20609" lon="7.45664"><ele></ele><time>2019-7-16T22:21:19Z</time></trkpt>
<trkpt lat="46.20629" lon="7.45663"><ele></ele><time>2019-7-16T22:21:22Z</time></trkpt>
<trkpt lat="46.20638" lon="7.4566"><ele></ele><time>2019-7-16T22:21:25Z</time></trkpt>
<trkpt lat="46.20643" lon="7.45658"><ele></ele><time>2019-7-16T22:21:28Z</time></trkpt>
<trkpt lat="46.20658" lon="7.45652"><ele></ele><time>2019-7-16T22:21:31Z</time></trkpt>
<trkpt lat="46.20676" lon="7.45645"><ele></ele><time>2019-7-16T22:21:34Z</time></trkpt>
<trkpt lat="46.20687" lon="7.45644"><ele></ele><time>2019-7-16T22:21:37Z</time></trkpt>
<trkpt lat="46.20708" lon="7.45638"><ele></ele><time>2019-7-16T22:21:40Z</time></trkpt>
<trkpt lat="46.20729" lon="7.45627"><ele></ele><time>2019-7-16T22:21:43Z</time></trkpt>
<trkpt lat="46.20741" lon="7.45625"><ele></ele><time>2019-7-16T22:21:46Z</time></trkpt>
<trkpt lat="46.20753" lon="7.45627"><ele></ele><time>2019-7-16T22:21:49Z</time></trkpt>
<trkpt lat="46.20765" lon="7.45628"><ele></ele><time>2019-7-16T22:21:52Z</time></trkpt>
<trkpt lat="46.20787" lon="7.45626"><ele></ele><time>2019-7-16T22:21:55Z</time></trkpt>
<trkpt lat="46.20809" lon="7.45622"><ele></ele><time>2019-7-16T22:21:58Z</time></trkpt>
<trkpt lat="46.20834" lon="7.45617"><ele></ele><time>2019-7-16T22:22:1Z</time></trkpt>
<trkpt lat="46.20853" lon="7.4561"><ele></ele><time>2019-7-16T22:22:4Z</time></trkpt>
<trkpt lat="46.20864" lon="7.45607"><ele></ele><time>2019-7-16T22:22:7Z</time></trkpt>
<trkpt lat="46.20869" lon="7.45607"><ele></ele><time>2019-7-16T22:22:10Z</time></trkpt>
<trkpt lat="46.20886" lon="7.45608"><ele></ele><time>2019-7-16T22:22:13Z</time></trkpt>
<trkpt lat="46.20892" lon="7.45607"><ele></ele><time>2019-7-16T22:22:16Z</time></trkpt>
<trkpt lat="46.20913" lon="7.456"><ele></ele><time>2019-7-16T22:22:19Z</time></trkpt>
<trkpt lat="46.20935" lon="7.45595"><ele></ele><time>2019-7-16T22:22:22Z</time></trkpt>
<trkpt lat="46.20955" lon="7.45591"><ele></ele><time>2019-7-16T22:22:25Z</time></trkpt>
<trkpt lat="46.20975" lon="7.45586"><ele></ele><time>2019-7-16T22:22:28Z</time></trkpt>
<trkpt lat="46.20996" lon="7.45582"><ele></ele><time>2019-7-16T22:22:31Z</time></trkpt>
<trkpt lat="46.21015" lon="7.45575"><ele></ele><time>2019-7-16T22:22:34Z</time></trkpt>
<trkpt lat="46.21035" lon="7.45564"><ele></ele><time>2019-7-16T22:22:37Z</time></trkpt>
<trkpt lat="46.21044" lon="7.45559"><ele></ele><time>2019-7-16T22:22:40Z</time></trkpt>
<trkpt lat="46.21068" lon="7.45555"><ele></ele><time>2019-7-16T22:22:43Z</time></trkpt>
<trkpt lat="46.21083" lon="7.45552"><ele></ele><time>2019-7-16T22:22:46Z</time></trkpt>
<trkpt lat="46.21103" lon="7.45542"><ele></ele><time>2019-7-16T22:22:49Z</time></trkpt>
<trkpt lat="46.21126" lon="7.45539"><ele></ele><time>2019-7-16T22:22:52Z</time></trkpt>
<trkpt lat="46.2115" lon="7.45543"><ele></ele><time>2019-7-16T22:22:55Z</time></trkpt>
<trkpt lat="46.21155" lon="7.45546"><ele></ele><time>2019-7-16T22:22:58Z</time></trkpt>
<trkpt lat="46.21176" lon="7.45559"><ele></ele><time>2019-7-16T22:23:1Z</time></trkpt>
<trkpt lat="46.21191" lon="7.45563"><ele></ele><time>2019-7-16T22:23:4Z</time></trkpt>
<trkpt lat="46.21209" lon="7.45559"><ele></ele><time>2019-7-16T22:23:7Z</time></trkpt>
<trkpt lat="46.21218" lon="7.45555"><ele></ele><time>2019-7-16T22:23:10Z</time></trkpt>
<trkpt lat="46.21237" lon="7.45547"><ele></ele><time>2019-7-16T22:23:13Z</time></trkpt>
<trkpt lat="46.21241" lon="7.45544"><ele></ele><time>2019-7-16T22:23:16Z</time></trkpt>
<trkpt lat="46.21255" lon="7.45535"><ele></ele><time>2019-7-16T22:23:19Z</time></trkpt>
<trkpt lat="46.21278" lon="7.45529"><ele></ele><time>2019-7-16T22:23:22Z</time></trkpt>
<trkpt lat="46.21284" lon="7.45527"><ele></ele><time>2019-7-16T22:23:25Z</time></trkpt>
<trkpt lat="46.21302" lon="7.4552"><ele></ele><time>2019-7-16T22:23:28Z</time></trkpt>
<trkpt lat="46.21312" lon="7.45513"><ele></ele><time>2019-7-16T22:23:31Z</time></trkpt>
<trkpt lat="46.21331" lon="7.45496"><ele></ele><time>2019-7-16T22:23:34Z</time></trkpt>
<trkpt lat="46.21343" lon="7.45492"><ele></ele><time>2019-7-16T22:23:37Z</time></trkpt>
<trkpt lat="46.21364" lon="7.45492"><ele></ele><time>2019-7-16T22:23:40Z</time></trkpt>
<trkpt lat="46.2138" lon="7.45493"><ele></ele><time>2019-7-16T22:23:43Z</time></trkpt>
<trkpt lat="46.21389" lon="7.4549"><ele></ele><time>2019-7-16T22:23:46Z</time></trkpt>
<trkpt lat="46.21407" lon="7.45479"><ele></ele><time>2019-7-16T22:23:49Z</time></trkpt>
<trkpt lat="46.21412" lon="7.45477"><ele></ele><time>2019-7-16T22:23:52Z</time></trkpt>
<trkpt lat="46.21433" lon="7.45478"><ele></ele><time>2019-7-16T22:23:55Z</time></trkpt>
<trkpt lat="46.21438" lon="7.45479"><ele></ele><time>2019-7-16T22:23:58Z</time></trkpt>
<trkpt lat="46.21456" lon="7.45494"><ele></ele><time>2019-7-16T22:24:1Z</time></trkpt>
<trkpt lat="46.21465" lon="7.45501"><ele></ele><time>2019-7-16T22:24:4Z</time></trkpt>
<trkpt lat="46.21479" lon="7.45511"><ele></ele><time>2019-7-16T22:24:7Z</time></trkpt>
<trkpt lat="46.21483" lon="7.45515"><ele></ele><time>2019-7-16T22:24:10Z</time></trkpt>
<trkpt lat="46.21502" lon="7.45532"><ele></ele><time>2019-7-16T22:24:13Z</time></trkpt>
<trkpt lat="46.21516" lon="7.45544"><ele></ele><time>2019-7-16T22:24:16Z</time></trkpt>
<trkpt lat="46.21525" lon="7.45549"><ele></ele><time>2019-7-16T22:24:19Z</time></trkpt>
<trkpt lat="46.21539" lon="7.45552"><ele></ele><time>2019-7-16T22:24:22Z</time></trkpt>
<trkpt lat="46.21557" lon="7.45544"><ele></ele><time>2019-7-16T22:24:25Z</time></trkpt>
<trkpt lat="46.21561" lon="7.4554"><ele></ele><time>2019-7-16T22:24:28Z</time></trkpt>
<trkpt lat="46.21569" lon="7.45534"><ele></ele><time>2019-7-16T22:24:31Z</time></trkpt>
<trkpt lat="46.21589" lon="7.45531"><ele></ele><time>2019-7-16T22:24:34Z</time></trkpt>
<trkpt lat="46.21601" lon="7.45531"><ele></ele><time>2019-7-16T22:24:37Z</time></trkpt>
<trkpt lat="46.2161" lon="7.45533"><ele></ele><time>2019-7-16T22:24:40Z</time></trkpt>
<trkpt lat="46.21617" lon="7.45536"><ele></ele><time>2019-7-16T22:24:43Z</time></trkpt>
<trkpt lat="46.21626" lon="7.45544"><ele></ele><time>2019-7-16T22:24:46Z</time></trkpt>
<trkpt lat="46.21633" lon="7.45553"><ele></ele><time>2019-7-16T22:24:49Z</time></trkpt>
<trkpt lat="46.2164" lon="7.45564"><ele></ele><time>2019-7-16T22:24:52Z</time></trkpt>
<trkpt lat="46.21641" lon="7.45564"><ele></ele><time>2019-7-16T22:24:55Z</time></trkpt>
<trkpt lat="46.21641" lon="7.45564"><ele></ele><time>2019-7-16T22:24:58Z</time></trkpt>
<trkpt lat="46.21642" lon="7.45565"><ele></ele><time>2019-7-16T22:25:1Z</time></trkpt>
<trkpt lat="46.21642" lon="7.45566"><ele></ele><time>2019-7-16T22:25:4Z</time></trkpt>
<trkpt lat="46.21642" lon="7.45566"><ele></ele><time>2019-7-16T22:25:7Z</time></trkpt>
<trkpt lat="46.2164" lon="7.45571"><ele></ele><time>2019-7-16T22:25:10Z</time></trkpt>
<trkpt lat="46.21635" lon="7.4556"><ele></ele><time>2019-7-16T22:25:13Z</time></trkpt>
<trkpt lat="46.21625" lon="7.45534"><ele></ele><time>2019-7-16T22:25:16Z</time></trkpt>
<trkpt lat="46.21615" lon="7.45518"><ele></ele><time>2019-7-16T22:25:19Z</time></trkpt>
<trkpt lat="46.21596" lon="7.45509"><ele></ele><time>2019-7-16T22:25:22Z</time></trkpt>
<trkpt lat="46.21585" lon="7.45506"><ele></ele><time>2019-7-16T22:25:25Z</time></trkpt>
<trkpt lat="46.21561" lon="7.45513"><ele></ele><time>2019-7-16T22:25:28Z</time></trkpt>
<trkpt lat="46.21542" lon="7.45502"><ele></ele><time>2019-7-16T22:25:31Z</time></trkpt>
<trkpt lat="46.21526" lon="7.45479"><ele></ele><time>2019-7-16T22:25:34Z</time></trkpt>
<trkpt lat="46.21509" lon="7.45455"><ele></ele><time>2019-7-16T22:25:37Z</time></trkpt>
<trkpt lat="46.21497" lon="7.45441"><ele></ele><time>2019-7-16T22:25:40Z</time></trkpt>
<trkpt lat="46.21483" lon="7.45432"><ele></ele><time>2019-7-16T22:25:43Z</time></trkpt>
<trkpt lat="46.21468" lon="7.45426"><ele></ele><time>2019-7-16T22:25:46Z</time></trkpt>
<trkpt lat="46.21444" lon="7.45419"><ele></ele><time>2019-7-16T22:25:49Z</time></trkpt>
<trkpt lat="46.21418" lon="7.45415"><ele></ele><time>2019-7-16T22:25:52Z</time></trkpt>
<trkpt lat="46.21409" lon="7.45412"><ele></ele><time>2019-7-16T22:25:55Z</time></trkpt>
<trkpt lat="46.21387" lon="7.45405"><ele></ele><time>2019-7-16T22:25:58Z</time></trkpt>
<trkpt lat="46.2138" lon="7.45405"><ele></ele><time>2019-7-16T22:26:1Z</time></trkpt>
<trkpt lat="46.21361" lon="7.45417"><ele></ele><time>2019-7-16T22:26:4Z</time></trkpt>
<trkpt lat="46.21339" lon="7.4543"><ele></ele><time>2019-7-16T22:26:7Z</time></trkpt>
<trkpt lat="46.21315" lon="7.45431"><ele></ele><time>2019-7-16T22:26:10Z</time></trkpt>
<trkpt lat="46.213" lon="7.45436"><ele></ele><time>2019-7-16T22:26:13Z</time></trkpt>
<trkpt lat="46.21286" lon="7.45443"><ele></ele><time>2019-7-16T22:26:16Z</time></trkpt>
<trkpt lat="46.21271" lon="7.45448"><ele></ele><time>2019-7-16T22:26:19Z</time></trkpt>
<trkpt lat="46.21254" lon="7.45444"><ele></ele><time>2019-7-16T22:26:22Z</time></trkpt>
<trkpt lat="46.21242" lon="7.45434"><ele></ele><time>2019-7-16T22:26:25Z</time></trkpt>
<trkpt lat="46.21237" lon="7.45429"><ele></ele><time>2019-7-16T22:26:28Z</time></trkpt>
<trkpt lat="46.21213" lon="7.45425"><ele></ele><time>2019-7-16T22:26:31Z</time></trkpt>
<trkpt lat="46.21207" lon="7.45425"><ele></ele><time>2019-7-16T22:26:34Z</time></trkpt>
<trkpt lat="46.21186" lon="7.45425"><ele></ele><time>2019-7-16T22:26:37Z</time></trkpt>
<trkpt lat="46.21179" lon="7.45423"><ele></ele><time>2019-7-16T22:26:40Z</time></trkpt>
<trkpt lat="46.21164" lon="7.45419"><ele></ele><time>2019-7-16T22:26:43Z</time></trkpt>
<trkpt lat="46.2115" lon="7.45416"><ele></ele><time>2019-7-16T22:26:46Z</time></trkpt>
<trkpt lat="46.21127" lon="7.45409"><ele></ele><time>2019-7-16T22:26:49Z</time></trkpt>
<trkpt lat="46.21103" lon="7.45403"><ele></ele><time>2019-7-16T22:26:52Z</time></trkpt>
<trkpt lat="46.21078" lon="7.45406"><ele></ele><time>2019-7-16T22:26:55Z</time></trkpt>
<trkpt lat="46.21052" lon="7.4541"><ele></ele><time>2019-7-16T22:26:58Z</time></trkpt>
<trkpt lat="46.21026" lon="7.45415"><ele></ele><time>2019-7-16T22:27:1Z</time></trkpt>
<trkpt lat="46.21001" lon="7.45419"><ele></ele><time>2019-7-16T22:27:4Z</time></trkpt>
<trkpt lat="46.20993" lon="7.45419"><ele></ele><time>2019-7-16T22:27:7Z</time></trkpt>
<trkpt lat="46.20978" lon="7.45412"><ele></ele><time>2019-7-16T22:27:10Z</time></trkpt>
<trkpt lat="46.20957" lon="7.45392"><ele></ele><time>2019-7-16T22:27:13Z</time></trkpt>
<trkpt lat="46.20935" lon="7.45381"><ele></ele><time>2019-7-16T22:27:16Z</time></trkpt>
<trkpt lat="46.20914" lon="7.45387"><ele></ele><time>2019-7-16T22:27:19Z</time></trkpt>
<trkpt lat="46.20892" lon="7.45401"><ele></ele><time>2019-7-16T22:27:22Z</time></trkpt>
<trkpt lat="46.20876" lon="7.45409"><ele></ele><time>2019-7-16T22:27:25Z</time></trkpt>
<trkpt lat="46.2085" lon="7.45406"><ele></ele><time>2019-7-16T22:27:28Z</time></trkpt>
<trkpt lat="46.20826" lon="7.45407"><ele></ele><time>2019-7-16T22:27:31Z</time></trkpt>
<trkpt lat="46.20801" lon="7.45407"><ele></ele><time>2019-7-16T22:27:34Z</time></trkpt>
<trkpt lat="46.20787" lon="7.45379"><ele></ele><time>2019-7-16T22:27:37Z</time></trkpt>
<trkpt lat="46.20784" lon="7.45369"><ele></ele><time>2019-7-16T22:27:40Z</time></trkpt>
<trkpt lat="46.2078" lon="7.4536"><ele></ele><time>2019-7-16T22:27:43Z</time></trkpt>
<trkpt lat="46.20762" lon="7.45347"><ele></ele><time>2019-7-16T22:27:46Z</time></trkpt>
<trkpt lat="46.20754" lon="7.45346"><ele></ele><time>2019-7-16T22:27:49Z</time></trkpt>
<trkpt lat="46.2073" lon="7.45339"><ele></ele><time>2019-7-16T22:27:52Z</time></trkpt>
<trkpt lat="46.20706" lon="7.45331"><ele></ele><time>2019-7-16T22:27:55Z</time></trkpt>
<trkpt lat="46.20684" lon="7.45317"><ele></ele><time>2019-7-16T22:27:58Z</time></trkpt>
<trkpt lat="46.20676" lon="7.45314"><ele></ele><time>2019-7-16T22:28:1Z</time></trkpt>
<trkpt lat="46.20659" lon="7.45312"><ele></ele><time>2019-7-16T22:28:4Z</time></trkpt>
<trkpt lat="46.20641" lon="7.45308"><ele></ele><time>2019-7-16T22:28:7Z</time></trkpt>
<trkpt lat="46.20622" lon="7.45309"><ele></ele><time>2019-7-16T22:28:10Z</time></trkpt>
<trkpt lat="46.20613" lon="7.45312"><ele></ele><time>2019-7-16T22:28:13Z</time></trkpt>
<trkpt lat="46.20594" lon="7.45316"><ele></ele><time>2019-7-16T22:28:16Z</time></trkpt>
<trkpt lat="46.20585" lon="7.45316"><ele></ele><time>2019-7-16T22:28:19Z</time></trkpt>
<trkpt lat="46.20566" lon="7.45315"><ele></ele><time>2019-7-16T22:28:22Z</time></trkpt>
<trkpt lat="46.20547" lon="7.45312"><ele></ele><time>2019-7-16T22:28:25Z</time></trkpt>
<trkpt lat="46.20528" lon="7.45309"><ele></ele><time>2019-7-16T22:28:28Z</time></trkpt>
<trkpt lat="46.20519" lon="7.45308"><ele></ele><time>2019-7-16T22:28:31Z</time></trkpt>
<trkpt lat="46.205" lon="7.4531"><ele></ele><time>2019-7-16T22:28:34Z</time></trkpt>
<trkpt lat="46.20475" lon="7.45314"><ele></ele><time>2019-7-16T22:28:37Z</time></trkpt>
<trkpt lat="46.20454" lon="7.453"><ele></ele><time>2019-7-16T22:28:40Z</time></trkpt>
<trkpt lat="46.20438" lon="7.45273"><ele></ele><time>2019-7-16T22:28:43Z</time></trkpt>
<trkpt lat="46.20432" lon="7.45264"><ele></ele><time>2019-7-16T22:28:46Z</time></trkpt>
<trkpt lat="46.20413" lon="7.45237"><ele></ele><time>2019-7-16T22:28:49Z</time></trkpt>
<trkpt lat="46.20407" lon="7.45229"><ele></ele><time>2019-7-16T22:28:52Z</time></trkpt>
<trkpt lat="46.20387" lon="7.45222"><ele></ele><time>2019-7-16T22:28:55Z</time></trkpt>
<trkpt lat="46.20369" lon="7.45219"><ele></ele><time>2019-7-16T22:28:58Z</time></trkpt>
<trkpt lat="46.20363" lon="7.45201"><ele></ele><time>2019-7-16T22:29:1Z</time></trkpt>
<trkpt lat="46.20381" lon="7.45191"><ele></ele><time>2019-7-16T22:29:4Z</time></trkpt>
<trkpt lat="46.20395" lon="7.45191"><ele></ele><time>2019-7-16T22:29:7Z</time></trkpt>
<trkpt lat="46.20419" lon="7.45186"><ele></ele><time>2019-7-16T22:29:10Z</time></trkpt>
<trkpt lat="46.20444" lon="7.45183"><ele></ele><time>2019-7-16T22:29:13Z</time></trkpt>
<trkpt lat="46.2047" lon="7.45178"><ele></ele><time>2019-7-16T22:29:16Z</time></trkpt>
<trkpt lat="46.20488" lon="7.45178"><ele></ele><time>2019-7-16T22:29:19Z</time></trkpt>
<trkpt lat="46.20506" lon="7.45183"><ele></ele><time>2019-7-16T22:29:22Z</time></trkpt>
<trkpt lat="46.20525" lon="7.45187"><ele></ele><time>2019-7-16T22:29:25Z</time></trkpt>
<trkpt lat="46.20535" lon="7.45187"><ele></ele><time>2019-7-16T22:29:28Z</time></trkpt>
<trkpt lat="46.20556" lon="7.45188"><ele></ele><time>2019-7-16T22:29:31Z</time></trkpt>
<trkpt lat="46.20576" lon="7.45192"><ele></ele><time>2019-7-16T22:29:34Z</time></trkpt>
<trkpt lat="46.20596" lon="7.45195"><ele></ele><time>2019-7-16T22:29:37Z</time></trkpt>
<trkpt lat="46.20606" lon="7.45194"><ele></ele><time>2019-7-16T22:29:40Z</time></trkpt>
<trkpt lat="46.20626" lon="7.45188"><ele></ele><time>2019-7-16T22:29:43Z</time></trkpt>
<trkpt lat="46.20645" lon="7.45177"><ele></ele><time>2019-7-16T22:29:46Z</time></trkpt>
<trkpt lat="46.20662" lon="7.45166"><ele></ele><time>2019-7-16T22:29:49Z</time></trkpt>
<trkpt lat="46.20687" lon="7.45152"><ele></ele><time>2019-7-16T22:29:52Z</time></trkpt>
<trkpt lat="46.20695" lon="7.4515"><ele></ele><time>2019-7-16T22:29:55Z</time></trkpt>
<trkpt lat="46.20714" lon="7.45148"><ele></ele><time>2019-7-16T22:29:58Z</time></trkpt>
<trkpt lat="46.20733" lon="7.45145"><ele></ele><time>2019-7-16T22:30:1Z</time></trkpt>
<trkpt lat="46.20753" lon="7.45143"><ele></ele><time>2019-7-16T22:30:4Z</time></trkpt>
<trkpt lat="46.20774" lon="7.45143"><ele></ele><time>2019-7-16T22:30:7Z</time></trkpt>
<trkpt lat="46.20785" lon="7.45144"><ele></ele><time>2019-7-16T22:30:10Z</time></trkpt>
<trkpt lat="46.20806" lon="7.45146"><ele></ele><time>2019-7-16T22:30:13Z</time></trkpt>
<trkpt lat="46.20816" lon="7.45149"><ele></ele><time>2019-7-16T22:30:16Z</time></trkpt>
<trkpt lat="46.20838" lon="7.45152"><ele></ele><time>2019-7-16T22:30:19Z</time></trkpt>
<trkpt lat="46.20861" lon="7.45149"><ele></ele><time>2019-7-16T22:30:22Z</time></trkpt>
<trkpt lat="46.20885" lon="7.45149"><ele></ele><time>2019-7-16T22:30:25Z</time></trkpt>
<trkpt lat="46.20909" lon="7.45149"><ele></ele><time>2019-7-16T22:30:28Z</time></trkpt>
<trkpt lat="46.20933" lon="7.45147"><ele></ele><time>2019-7-16T22:30:31Z</time></trkpt>
<trkpt lat="46.20956" lon="7.45142"><ele></ele><time>2019-7-16T22:30:34Z</time></trkpt>
<trkpt lat="46.20978" lon="7.45137"><ele></ele><time>2019-7-16T22:30:37Z</time></trkpt>
<trkpt lat="46.21001" lon="7.4513"><ele></ele><time>2019-7-16T22:30:40Z</time></trkpt>
<trkpt lat="46.21023" lon="7.4512"><ele></ele><time>2019-7-16T22:30:43Z</time></trkpt>
<trkpt lat="46.21045" lon="7.45106"><ele></ele><time>2019-7-16T22:30:46Z</time></trkpt>
<trkpt lat="46.21066" lon="7.45088"><ele></ele><time>2019-7-16T22:30:49Z</time></trkpt>
<trkpt lat="46.21086" lon="7.4507"><ele></ele><time>2019-7-16T22:30:52Z</time></trkpt>
<trkpt lat="46.21096" lon="7.45063"><ele></ele><time>2019-7-16T22:30:55Z</time></trkpt>
<trkpt lat="46.21115" lon="7.45047"><ele></ele><time>2019-7-16T22:30:58Z</time></trkpt>
<trkpt lat="46.21135" lon="7.45032"><ele></ele><time>2019-7-16T22:31:1Z</time></trkpt>
<trkpt lat="46.21154" lon="7.45015"><ele></ele><time>2019-7-16T22:31:4Z</time></trkpt>
<trkpt lat="46.21174" lon="7.45"><ele></ele><time>2019-7-16T22:31:7Z</time></trkpt>
<trkpt lat="46.21195" lon="7.44989"><ele></ele><time>2019-7-16T22:31:10Z</time></trkpt>
<trkpt lat="46.21215" lon="7.44977"><ele></ele><time>2019-7-16T22:31:13Z</time></trkpt>
<trkpt lat="46.21233" lon="7.44963"><ele></ele><time>2019-7-16T22:31:16Z</time></trkpt>
<trkpt lat="46.21249" lon="7.44946"><ele></ele><time>2019-7-16T22:31:19Z</time></trkpt>
<trkpt lat="46.21261" lon="7.44928"><ele></ele><time>2019-7-16T22:31:22Z</time></trkpt>
<trkpt lat="46.21272" lon="7.44912"><ele></ele><time>2019-7-16T22:31:25Z</time></trkpt>
<trkpt lat="46.2129" lon="7.44894"><ele></ele><time>2019-7-16T22:31:28Z</time></trkpt>
<trkpt lat="46.21305" lon="7.44878"><ele></ele><time>2019-7-16T22:31:31Z</time></trkpt>
<trkpt lat="46.21313" lon="7.44865"><ele></ele><time>2019-7-16T22:31:34Z</time></trkpt>
<trkpt lat="46.21323" lon="7.44835"><ele></ele><time>2019-7-16T22:31:37Z</time></trkpt>
<trkpt lat="46.21325" lon="7.44827"><ele></ele><time>2019-7-16T22:31:40Z</time></trkpt>
<trkpt lat="46.21333" lon="7.44812"><ele></ele><time>2019-7-16T22:31:43Z</time></trkpt>
<trkpt lat="46.21351" lon="7.44794"><ele></ele><time>2019-7-16T22:31:46Z</time></trkpt>
<trkpt lat="46.21373" lon="7.44775"><ele></ele><time>2019-7-16T22:31:49Z</time></trkpt>
<trkpt lat="46.21381" lon="7.44767"><ele></ele><time>2019-7-16T22:31:52Z</time></trkpt>
<trkpt lat="46.21388" lon="7.44758"><ele></ele><time>2019-7-16T22:31:55Z</time></trkpt>
<trkpt lat="46.21404" lon="7.44739"><ele></ele><time>2019-7-16T22:31:58Z</time></trkpt>
<trkpt lat="46.2142" lon="7.44718"><ele></ele><time>2019-7-16T22:32:1Z</time></trkpt>
<trkpt lat="46.21437" lon="7.44696"><ele></ele><time>2019-7-16T22:32:4Z</time></trkpt>
<trkpt lat="46.21454" lon="7.44673"><ele></ele><time>2019-7-16T22:32:7Z</time></trkpt>
<trkpt lat="46.21462" lon="7.44659"><ele></ele><time>2019-7-16T22:32:10Z</time></trkpt>
<trkpt lat="46.21475" lon="7.44627"><ele></ele><time>2019-7-16T22:32:13Z</time></trkpt>
<trkpt lat="46.2148" lon="7.4461"><ele></ele><time>2019-7-16T22:32:16Z</time></trkpt>
<trkpt lat="46.21484" lon="7.44592"><ele></ele><time>2019-7-16T22:32:19Z</time></trkpt>
<trkpt lat="46.21493" lon="7.44556"><ele></ele><time>2019-7-16T22:32:22Z</time></trkpt>
<trkpt lat="46.21504" lon="7.44519"><ele></ele><time>2019-7-16T22:32:25Z</time></trkpt>
<trkpt lat="46.21509" lon="7.445"><ele></ele><time>2019-7-16T22:32:28Z</time></trkpt>
<trkpt lat="46.21514" lon="7.44482"><ele></ele><time>2019-7-16T22:32:31Z</time></trkpt>
<trkpt lat="46.21518" lon="7.44462"><ele></ele><time>2019-7-16T22:32:34Z</time></trkpt>
<trkpt lat="46.21521" lon="7.44442"><ele></ele><time>2019-7-16T22:32:37Z</time></trkpt>
<trkpt lat="46.21528" lon="7.44402"><ele></ele><time>2019-7-16T22:32:40Z</time></trkpt>
<trkpt lat="46.21533" lon="7.44366"><ele></ele><time>2019-7-16T22:32:43Z</time></trkpt>
<trkpt lat="46.21538" lon="7.44336"><ele></ele><time>2019-7-16T22:32:46Z</time></trkpt>
<trkpt lat="46.21541" lon="7.44323"><ele></ele><time>2019-7-16T22:32:49Z</time></trkpt>
<trkpt lat="46.21561" lon="7.44299"><ele></ele><time>2019-7-16T22:32:52Z</time></trkpt>
<trkpt lat="46.21579" lon="7.44294"><ele></ele><time>2019-7-16T22:32:55Z</time></trkpt>
<trkpt lat="46.21599" lon="7.44283"><ele></ele><time>2019-7-16T22:32:58Z</time></trkpt>
<trkpt lat="46.21581" lon="7.4427"><ele></ele><time>2019-7-16T22:33:1Z</time></trkpt>
<trkpt lat="46.21566" lon="7.44274"><ele></ele><time>2019-7-16T22:33:4Z</time></trkpt>
<trkpt lat="46.21542" lon="7.4429"><ele></ele><time>2019-7-16T22:33:7Z</time></trkpt>
<trkpt lat="46.21527" lon="7.44308"><ele></ele><time>2019-7-16T22:33:10Z</time></trkpt>
<trkpt lat="46.21514" lon="7.44331"><ele></ele><time>2019-7-16T22:33:13Z</time></trkpt>
<trkpt lat="46.21509" lon="7.44343"><ele></ele><time>2019-7-16T22:33:16Z</time></trkpt>
<trkpt lat="46.21495" lon="7.44367"><ele></ele><time>2019-7-16T22:33:19Z</time></trkpt>
<trkpt lat="46.21486" lon="7.44376"><ele></ele><time>2019-7-16T22:33:22Z</time></trkpt>
<trkpt lat="46.21464" lon="7.44384"><ele></ele><time>2019-7-16T22:33:25Z</time></trkpt>
<trkpt lat="46.21443" lon="7.44393"><ele></ele><time>2019-7-16T22:33:28Z</time></trkpt>
<trkpt lat="46.21425" lon="7.44412"><ele></ele><time>2019-7-16T22:33:31Z</time></trkpt>
<trkpt lat="46.21409" lon="7.44438"><ele></ele><time>2019-7-16T22:33:34Z</time></trkpt>
<trkpt lat="46.21398" lon="7.44471"><ele></ele><time>2019-7-16T22:33:37Z</time></trkpt>
<trkpt lat="46.21392" lon="7.44486"><ele></ele><time>2019-7-16T22:33:40Z</time></trkpt>
<trkpt lat="46.21374" lon="7.44513"><ele></ele><time>2019-7-16T22:33:43Z</time></trkpt>
<trkpt lat="46.21351" lon="7.44529"><ele></ele><time>2019-7-16T22:33:46Z</time></trkpt>
<trkpt lat="46.21327" lon="7.44533"><ele></ele><time>2019-7-16T22:33:49Z</time></trkpt>
<trkpt lat="46.21315" lon="7.44533"><ele></ele><time>2019-7-16T22:33:52Z</time></trkpt>
<trkpt lat="46.21303" lon="7.44533"><ele></ele><time>2019-7-16T22:33:55Z</time></trkpt>
<trkpt lat="46.21278" lon="7.44537"><ele></ele><time>2019-7-16T22:33:58Z</time></trkpt>
<trkpt lat="46.21256" lon="7.44544"><ele></ele><time>2019-7-16T22:34:1Z</time></trkpt>
<trkpt lat="46.21245" lon="7.44545"><ele></ele><time>2019-7-16T22:34:4Z</time></trkpt>
<trkpt lat="46.21222" lon="7.44541"><ele></ele><time>2019-7-16T22:34:7Z</time></trkpt>
<trkpt lat="46.212" lon="7.44527"><ele></ele><time>2019-7-16T22:34:10Z</time></trkpt>
<trkpt lat="46.21178" lon="7.44517"><ele></ele><time>2019-7-16T22:34:13Z</time></trkpt>
<trkpt lat="46.21156" lon="7.44513"><ele></ele><time>2019-7-16T22:34:16Z</time></trkpt>
<trkpt lat="46.21132" lon="7.44516"><ele></ele><time>2019-7-16T22:34:19Z</time></trkpt>
<trkpt lat="46.2112" lon="7.44519"><ele></ele><time>2019-7-16T22:34:22Z</time></trkpt>
<trkpt lat="46.21096" lon="7.44526"><ele></ele><time>2019-7-16T22:34:25Z</time></trkpt>
<trkpt lat="46.21071" lon="7.44538"><ele></ele><time>2019-7-16T22:34:28Z</time></trkpt>
<trkpt lat="46.21059" lon="7.44546"><ele></ele><time>2019-7-16T22:34:31Z</time></trkpt>
<trkpt lat="46.21036" lon="7.44561"><ele></ele><time>2019-7-16T22:34:34Z</time></trkpt>
<trkpt lat="46.21012" lon="7.44572"><ele></ele><time>2019-7-16T22:34:37Z</time></trkpt>
<trkpt lat="46.20987" lon="7.44583"><ele></ele><time>2019-7-16T22:34:40Z</time></trkpt>
<trkpt lat="46.20962" lon="7.44596"><ele></ele><time>2019-7-16T22:34:43Z</time></trkpt>
<trkpt lat="46.20941" lon="7.44607"><ele></ele><time>2019-7-16T22:34:46Z</time></trkpt>
<trkpt lat="46.20931" lon="7.44611"><ele></ele><time>2019-7-16T22:34:49Z</time></trkpt>
<trkpt lat="46.20911" lon="7.4461"><ele></ele><time>2019-7-16T22:34:52Z</time></trkpt>
<trkpt lat="46.20891" lon="7.44598"><ele></ele><time>2019-7-16T22:34:55Z</time></trkpt>
<trkpt lat="46.20881" lon="7.4459"><ele></ele><time>2019-7-16T22:34:58Z</time></trkpt>
<trkpt lat="46.20861" lon="7.44575"><ele></ele><time>2019-7-16T22:35:1Z</time></trkpt>
<trkpt lat="46.20839" lon="7.44559"><ele></ele><time>2019-7-16T22:35:4Z</time></trkpt>
<trkpt lat="46.20816" lon="7.44543"><ele></ele><time>2019-7-16T22:35:7Z</time></trkpt>
<trkpt lat="46.20793" lon="7.44526"><ele></ele><time>2019-7-16T22:35:10Z</time></trkpt>
<trkpt lat="46.2077" lon="7.44512"><ele></ele><time>2019-7-16T22:35:13Z</time></trkpt>
<trkpt lat="46.2075" lon="7.44496"><ele></ele><time>2019-7-16T22:35:16Z</time></trkpt>
<trkpt lat="46.2074" lon="7.44485"><ele></ele><time>2019-7-16T22:35:19Z</time></trkpt>
<trkpt lat="46.20724" lon="7.44461"><ele></ele><time>2019-7-16T22:35:22Z</time></trkpt>
<trkpt lat="46.2071" lon="7.44435"><ele></ele><time>2019-7-16T22:35:25Z</time></trkpt>
<trkpt lat="46.20703" lon="7.44422"><ele></ele><time>2019-7-16T22:35:28Z</time></trkpt>
<trkpt lat="46.20687" lon="7.44398"><ele></ele><time>2019-7-16T22:35:31Z</time></trkpt>
<trkpt lat="46.2067" lon="7.44377"><ele></ele><time>2019-7-16T22:35:34Z</time></trkpt>
<trkpt lat="46.20649" lon="7.44359"><ele></ele><time>2019-7-16T22:35:37Z</time></trkpt>
<trkpt lat="46.20629" lon="7.44342"><ele></ele><time>2019-7-16T22:35:40Z</time></trkpt>
<trkpt lat="46.2061" lon="7.44323"><ele></ele><time>2019-7-16T22:35:43Z</time></trkpt>
<trkpt lat="46.20602" lon="7.4431"><ele></ele><time>2019-7-16T22:35:46Z</time></trkpt>
<trkpt lat="46.20587" lon="7.44282"><ele></ele><time>2019-7-16T22:35:49Z</time></trkpt>
<trkpt lat="46.20581" lon="7.44267"><ele></ele><time>2019-7-16T22:35:52Z</time></trkpt>
<trkpt lat="46.20573" lon="7.44232"><ele></ele><time>2019-7-16T22:35:55Z</time></trkpt>
<trkpt lat="46.20569" lon="7.44196"><ele></ele><time>2019-7-16T22:35:58Z</time></trkpt>
<trkpt lat="46.20565" lon="7.44163"><ele></ele><time>2019-7-16T22:36:1Z</time></trkpt>
<trkpt lat="46.20562" lon="7.44146"><ele></ele><time>2019-7-16T22:36:4Z</time></trkpt>
<trkpt lat="46.20553" lon="7.44114"><ele></ele><time>2019-7-16T22:36:7Z</time></trkpt>
<trkpt lat="46.2054" lon="7.44087"><ele></ele><time>2019-7-16T22:36:10Z</time></trkpt>
<trkpt lat="46.20523" lon="7.44064"><ele></ele><time>2019-7-16T22:36:13Z</time></trkpt>
<trkpt lat="46.20503" lon="7.44043"><ele></ele><time>2019-7-16T22:36:16Z</time></trkpt>
<trkpt lat="46.20482" lon="7.44021"><ele></ele><time>2019-7-16T22:36:19Z</time></trkpt>
<trkpt lat="46.20462" lon="7.44002"><ele></ele><time>2019-7-16T22:36:22Z</time></trkpt>
<trkpt lat="46.20446" lon="7.43986"><ele></ele><time>2019-7-16T22:36:25Z</time></trkpt>
<trkpt lat="46.20435" lon="7.43972"><ele></ele><time>2019-7-16T22:36:28Z</time></trkpt>
<trkpt lat="46.2045" lon="7.4396"><ele></ele><time>2019-7-16T22:36:31Z</time></trkpt>
<trkpt lat="46.20468" lon="7.43972"><ele></ele><time>2019-7-16T22:36:34Z</time></trkpt>
<trkpt lat="46.20475" lon="7.43975"><ele></ele><time>2019-7-16T22:36:37Z</time></trkpt>
<trkpt lat="46.20496" lon="7.43986"><ele></ele><time>2019-7-16T22:36:40Z</time></trkpt>
<trkpt lat="46.2051" lon="7.43995"><ele></ele><time>2019-7-16T22:36:43Z</time></trkpt>
<trkpt lat="46.20526" lon="7.44006"><ele></ele><time>2019-7-16T22:36:46Z</time></trkpt>
<trkpt lat="46.20549" lon="7.44021"><ele></ele><time>2019-7-16T22:36:49Z</time></trkpt>
<trkpt lat="46.20561" lon="7.44029"><ele></ele><time>2019-7-16T22:36:52Z</time></trkpt>
<trkpt lat="46.20569" lon="7.44035"><ele></ele><time>2019-7-16T22:36:55Z</time></trkpt>
<trkpt lat="46.20567" lon="7.44012"><ele></ele><time>2019-7-16T22:36:58Z</time></trkpt>
<trkpt lat="46.20566" lon="7.44007"><ele></ele><time>2019-7-16T22:37:1Z</time></trkpt>
<trkpt lat="46.20558" lon="7.43987"><ele></ele><time>2019-7-16T22:37:4Z</time></trkpt>
<trkpt lat="46.20561" lon="7.43979"><ele></ele><time>2019-7-16T22:37:7Z</time></trkpt>
<trkpt lat="46.20563" lon="7.43977"><ele></ele><time>2019-7-16T22:37:10Z</time></trkpt>
<trkpt lat="46.20579" lon="7.43964"><ele></ele><time>2019-7-16T22:37:13Z</time></trkpt>
<trkpt lat="46.20596" lon="7.4396"><ele></ele><time>2019-7-16T22:37:16Z</time></trkpt>
<trkpt lat="46.20615" lon="7.43956"><ele></ele><time>2019-7-16T22:37:19Z</time></trkpt>
<trkpt lat="46.20618" lon="7.43956"><ele></ele><time>2019-7-16T22:37:22Z</time></trkpt>
<trkpt lat="46.20621" lon="7.43956"><ele></ele><time>2019-7-16T22:37:25Z</time></trkpt>
<trkpt lat="46.20627" lon="7.43957"><ele></ele><time>2019-7-16T22:37:28Z</time></trkpt>
<trkpt lat="46.20634" lon="7.43959"><ele></ele><time>2019-7-16T22:37:31Z</time></trkpt>
<trkpt lat="46.20652" lon="7.43969"><ele></ele><time>2019-7-16T22:37:34Z</time></trkpt>
<trkpt lat="46.20663" lon="7.43976"><ele></ele><time>2019-7-16T22:37:37Z</time></trkpt>
<trkpt lat="46.20666" lon="7.43961"><ele></ele><time>2019-7-16T22:37:40Z</time></trkpt>
<trkpt lat="46.20666" lon="7.43961"><ele></ele><time>2019-7-16T22:37:43Z</time></trkpt>
<trkpt lat="46.20665" lon="7.43961"><ele></ele><time>2019-7-16T22:37:46Z</time></trkpt>
<trkpt lat="46.20667" lon="7.43961"><ele></ele><time>2019-7-16T22:37:49Z</time></trkpt>
<trkpt lat="46.20672" lon="7.43966"><ele></ele><time>2019-7-16T22:37:52Z</time></trkpt>
</trkseg></trk></gpx>